M I D A S
Marine Information and Data Acquisition System
Tripno 593 of the Zeeleeuw from 2003-09-18 06:17:58 to 2003-09-18 13:10:43
Back to CruiseResearch ActivitiesStationsMapUnderway DataData graphs

EquipmentUnitsComment
TimeDGPSUTC
LatitudeDGPSDM.mWGS84
LongitudeDGPSDM.mWGS84
TemperatureSBE03/SBE38deg celciusITS90
ConductivitySBE21S/mITS90
SalinitySBE21 Practical Salinity Units
ChlorophylAChelsea fluorimeterg/lCalibrated in Aceton
Missing or incorrect values are displayed as -999
Sea surface data collected by the RV Zeeleeuw from 2003-09-18 06:17:58 to 2003-09-18 13:10:43
                                                                                    Next 1000 lines
Time Latitude Longitude Temperature Conductivity Salinity ChlorophylA
2003-09-18 06:18:06 51°13.71 2°55.76 -999 0.136013 0.692157 -0.275608
2003-09-18 06:18:12 51°13.72 2°55.75 -999 0.129458 0.657353 -0.241899
2003-09-18 06:18:16 51°13.72 2°55.75 -999 0.127066 0.64467 -0.275608
2003-09-18 06:18:22 51°13.73 2°55.74 -999 0.132164 0.671697 -0.275608
2003-09-18 06:18:26 51°13.74 2°55.73 -999 0.132164 0.671697 -0.275608
2003-09-18 06:18:32 51°13.74 2°55.72 -999 0.126441 0.641424 -0.241899
2003-09-18 06:18:36 51°13.75 2°55.71 -999 0.124881 0.633202 -0.241899
2003-09-18 06:18:42 51°13.76 2°55.7 -999 0.130707 0.664081 -0.275608
2003-09-18 06:18:46 51°13.77 2°55.69 -999 0.131539 0.668531 -0.275608
2003-09-18 06:18:52 51°13.78 2°55.68 -999 0.139031 0.708369 -0.275608
2003-09-18 06:18:56 51°13.79 2°55.67 -999 0.139031 0.708369 -0.275608
2003-09-18 06:19:02 51°13.8 2°55.66 -999 0.139239 0.709496 -0.275608
2003-09-18 06:19:06 51°13.81 2°55.65 -999 0.147251 0.752269 -0.275608
2003-09-18 06:19:12 51°13.82 2°55.64 -999 0.151725 0.776185 -0.241899
2003-09-18 06:19:14 51°13.83 2°55.63 -999 0.147459 0.753369 -0.275608
2003-09-18 06:19:22 51°13.85 2°55.62 22.67697 0.156304 0.800693 -0.14077
2003-09-18 06:19:26 51°13.86 2°55.61 22.67697 0.156304 0.800693 -0.14077
2003-09-18 06:19:32 51°13.87 2°55.6 21.447873 2.287149 14.178144 0.061486
2003-09-18 06:19:36 51°13.88 2°55.59 20.301914 2.297553 14.301815 1.51099
2003-09-18 06:19:42 51°13.9 2°55.58 20.26544 3.2335 21.061091 2.185178
2003-09-18 06:19:46 51°13.91 2°55.58 20.20208 4.214735 28.713121 1.578409
2003-09-18 06:19:52 51°13.92 2°55.57 20.20208 4.214735 28.713121 1.578409
2003-09-18 06:19:56 51°13.93 2°55.56 19.704636 4.292997 29.642513 1.645828
2003-09-18 06:20:02 51°13.94 2°55.55 19.990009 4.229619 29.546389 2.387435
2003-09-18 06:20:06 51°13.95 2°55.54 19.497822 4.155386 29.374983 2.488563
2003-09-18 06:20:12 51°13.97 2°55.53 19.572731 4.059964 28.964061 2.522272
2003-09-18 06:20:16 51°13.97 2°55.53 19.591171 4.055961 29.139513 2.488563
2003-09-18 06:20:22 51°13.99 2°55.52 19.46578 3.997239 28.890703 2.555982
2003-09-18 06:20:26 51°14 2°55.51 19.46578 3.997239 28.890703 2.555982
2003-09-18 06:20:32 51°14.01 2°55.5 19.65789 4.022545 29.240557 2.555982
2003-09-18 06:20:36 51°14.02 2°55.5 19.598212 4.033829 29.438314 2.555982
2003-09-18 06:20:42 51°14.03 2°55.49 19.600044 4.034884 29.509562 2.589691
2003-09-18 06:20:46 51°14.04 2°55.48 19.277845 4.044902 29.636949 2.555982
2003-09-18 06:20:52 51°14.05 2°55.47 19.277845 4.044902 29.636949 2.555982
2003-09-18 06:20:56 51°14.06 2°55.46 19.519622 4.038049 29.619772 2.555982
2003-09-18 06:21:02 51°14.07 2°55.45 19.467289 4.032989 29.612631 2.589691
2003-09-18 06:21:06 51°14.08 2°55.45 19.474832 4.014749 29.486458 2.555982
2003-09-18 06:21:12 51°14.09 2°55.44 19.659354 3.983964 29.254605 2.555982
2003-09-18 06:21:16 51°14.1 2°55.43 19.007489 4.00621 29.458875 2.555982
2003-09-18 06:21:22 51°14.11 2°55.42 18.639851 3.987971 29.323329 2.522272
2003-09-18 06:21:26 51°14.12 2°55.41 18.639851 3.987971 29.323329 2.522272
2003-09-18 06:21:32 51°14.14 2°55.4 18.604771 3.992399 29.375329 2.522272
2003-09-18 06:21:36 51°14.15 2°55.39 18.680108 3.989025 29.356854 2.522272
2003-09-18 06:21:42 51°14.16 2°55.38 18.732251 3.823417 28.019369 2.488563
2003-09-18 06:21:46 51°14.17 2°55.37 18.577191 3.982173 29.322577 2.522272
2003-09-18 06:21:50 51°14.18 2°55.36 18.605432 3.983649 29.339252 2.454853
2003-09-18 06:21:56 51°14.2 2°55.35 18.605432 3.983649 29.339252 2.454853
2003-09-18 06:22:02 51°14.21 2°55.33 18.679572 3.987234 29.375767 2.454853
2003-09-18 06:22:06 51°14.22 2°55.32 18.606712 3.992716 29.422257 2.387435
2003-09-18 06:22:12 51°14.24 2°55.3 18.633373 4.002943 29.507687 2.387435
2003-09-18 06:22:16 51°14.25 2°55.29 18.598662 4.006317 29.54614 2.387435
2003-09-18 06:22:22 51°14.26 2°55.27 18.704597 4.014224 29.616723 2.454853
2003-09-18 06:22:26 51°14.27 2°55.26 18.704597 4.014224 29.616723 2.454853
2003-09-18 06:22:32 51°14.28 2°55.24 18.667612 4.006633 29.558487 2.387435
2003-09-18 06:22:36 51°14.29 2°55.22 18.641212 4.006844 29.564839 2.421144
2003-09-18 06:22:42 51°14.3 2°55.2 18.513565 4.002522 29.533953 2.421144
2003-09-18 06:22:46 51°14.31 2°55.19 18.463781 3.995036 29.475549 2.387435
2003-09-18 06:22:52 51°14.32 2°55.16 18.5515 3.986707 29.409205 2.454853
2003-09-18 06:22:56 51°14.33 2°55.15 18.5515 3.986707 29.409205 2.454853
2003-09-18 06:23:02 51°14.34 2°55.12 18.542824 3.980171 29.357586 2.387435
2003-09-18 06:23:06 51°14.35 2°55.11 18.564801 3.949492 29.110458 2.454853
2003-09-18 06:23:12 51°14.36 2°55.09 18.514392 3.955396 29.163435 2.421144
2003-09-18 06:23:16 51°14.37 2°55.07 18.386885 3.95255 29.148193 2.353725
2003-09-18 06:23:22 51°14.38 2°55.05 18.474907 3.947068 29.110811 2.387435
2003-09-18 06:23:26 51°14.39 2°55.04 18.474907 3.947068 29.110811 2.387435
2003-09-18 06:23:32 51°14.4 2°55.02 18.516293 3.925562 28.944495 2.353725
2003-09-18 06:23:36 51°14.41 2°55.01 18.635766 3.944433 29.102347 2.353725
2003-09-18 06:23:42 51°14.43 2°54.99 18.547368 3.944222 29.104668 2.387435
2003-09-18 06:23:46 51°14.44 2°54.98 18.428158 3.949282 29.148242 2.387435
2003-09-18 06:23:52 51°14.45 2°54.96 18.428158 3.949282 29.148242 2.387435
2003-09-18 06:23:56 51°14.46 2°54.95 18.524394 3.961195 29.254234 2.353725
2003-09-18 06:24:02 51°14.48 2°54.93 18.39529 3.978169 29.39888 2.286306
2003-09-18 06:24:06 51°14.49 2°54.92 18.400176 3.997357 29.561385 2.252597
2003-09-18 06:24:12 51°14.51 2°54.91 18.662127 4.024453 29.793903 2.252597
2003-09-18 06:24:16 51°14.52 2°54.89 18.435979 4.0467 29.986782 2.252597
2003-09-18 06:24:22 51°14.53 2°54.88 18.287804 4.058615 30.088286 2.286306
2003-09-18 06:24:26 51°14.54 2°54.87 18.287804 4.058615 30.088286 2.286306
2003-09-18 06:24:32 51°14.56 2°54.85 18.36423 4.054292 30.057309 2.252597
2003-09-18 06:24:36 51°14.57 2°54.84 18.321095 4.094992 30.400568 2.185178
2003-09-18 06:24:42 51°14.59 2°54.82 18.347245 4.111125 30.539942 2.151469
2003-09-18 06:24:46 51°14.6 2°54.81 18.404854 4.125994 30.673257 2.151469
2003-09-18 06:24:52 51°14.62 2°54.79 18.461093 4.144026 30.828131 2.117759
2003-09-18 06:24:56 51°14.63 2°54.78 18.461093 4.144026 30.828131 2.117759
2003-09-18 06:25:02 51°14.65 2°54.76 18.463492 4.15552 30.929437 2.151469
2003-09-18 06:25:06 51°14.66 2°54.74 18.530634 4.156258 30.940972 2.117759
2003-09-18 06:25:12 51°14.68 2°54.73 18.334979 4.162586 30.998924 2.08405
2003-09-18 06:25:16 51°14.69 2°54.71 18.514847 4.172077 31.083741 2.016631
2003-09-18 06:25:22 51°14.71 2°54.69 18.45526 4.181568 31.164259 1.949212
2003-09-18 06:25:26 51°14.72 2°54.68 18.45526 4.181568 31.164259 1.949212
2003-09-18 06:25:30 51°14.73 2°54.67 18.503644 4.196226 31.286156 1.848084
2003-09-18 06:25:36 51°14.75 2°54.64 18.438917 4.187157 31.21619 1.814375
2003-09-18 06:25:42 51°14.77 2°54.62 18.33701 4.229869 31.574461 1.881794
2003-09-18 06:25:46 51°14.78 2°54.61 18.315292 4.252649 31.760438 1.780665
2003-09-18 06:25:52 51°14.8 2°54.59 18.385684 4.274797 31.935672 1.780665
2003-09-18 06:25:56 51°14.81 2°54.58 18.385684 4.274797 31.935672 1.780665
2003-09-18 06:26:02 51°14.83 2°54.56 18.317779 4.289774 32.049428 1.746956
2003-09-18 06:26:06 51°14.85 2°54.54 18.41094 4.301059 32.138552 1.780665
2003-09-18 06:26:12 51°14.86 2°54.52 18.477885 4.302325 32.150803 1.746956
2003-09-18 06:26:16 51°14.88 2°54.51 18.343308 4.328904 32.361453 1.780665
2003-09-18 06:26:22 51°14.9 2°54.49 18.369366 4.332069 32.389017 1.780665
2003-09-18 06:26:26 51°14.91 2°54.48 18.369366 4.332069 32.389017 1.780665
2003-09-18 06:26:32 51°14.93 2°54.46 18.434489 4.335022 32.415391 1.814375
2003-09-18 06:26:36 51°14.94 2°54.45 18.46829 4.341034 32.466766 1.780665
2003-09-18 06:26:42 51°14.96 2°54.43 18.374916 4.325002 32.335644 1.780665
2003-09-18 06:26:46 51°14.98 2°54.42 18.469365 4.343671 32.491647 1.713247
2003-09-18 06:26:52 51°15 2°54.4 18.802181 4.348313 32.532721 1.679537
2003-09-18 06:26:56 51°15.01 2°54.38 18.802181 4.348313 32.532721 1.679537
2003-09-18 06:27:02 51°15.03 2°54.36 18.398437 4.349051 32.540033 1.645828
2003-09-18 06:27:06 51°15.04 2°54.35 18.294646 4.344515 32.50268 1.578409
2003-09-18 06:27:12 51°15.06 2°54.33 18.399596 4.345676 32.512381 1.612118
2003-09-18 06:27:16 51°15.07 2°54.32 18.397775 4.343461 32.497273 1.51099
2003-09-18 06:27:22 51°15.09 2°54.3 18.403861 4.355802 32.602762 1.5447
2003-09-18 06:27:26 51°15.1 2°54.28 18.403861 4.355802 32.602762 1.5447
2003-09-18 06:27:32 51°15.12 2°54.26 18.329509 4.35327 32.583296 1.51099
2003-09-18 06:27:36 51°15.14 2°54.25 18.434862 4.359283 32.634167 1.477281
2003-09-18 06:27:42 51°15.16 2°54.23 18.398603 4.361498 32.65213 1.443571
2003-09-18 06:27:46 51°15.17 2°54.22 18.463823 4.352321 32.577066 1.443571
2003-09-18 06:27:52 51°15.19 2°54.2 18.463823 4.352321 32.577066 1.443571
2003-09-18 06:27:56 51°15.2 2°54.19 18.555548 4.363291 32.668851 1.409862
2003-09-18 06:28:02 51°15.22 2°54.17 18.34799 4.367088 32.700632 1.409862
2003-09-18 06:28:06 51°15.24 2°54.15 18.380052 4.362131 32.661428 1.477281
2003-09-18 06:28:12 51°15.26 2°54.13 18.304016 4.36192 32.65909 1.477281
2003-09-18 06:28:16 51°15.27 2°54.12 18.433579 4.369093 32.720844 1.443571
2003-09-18 06:28:22 51°15.29 2°54.1 18.433579 4.369093 32.720844 1.443571
2003-09-18 06:28:26 51°15.3 2°54.09 18.538692 4.359388 32.641905 1.477281
2003-09-18 06:28:32 51°15.32 2°54.08 18.440241 4.349368 32.562619 1.51099
2003-09-18 06:28:36 51°15.34 2°54.07 18.382371 4.361604 32.669595 1.477281
2003-09-18 06:28:42 51°15.36 2°54.05 18.561703 4.353587 32.606487 1.51099
2003-09-18 06:28:46 51°15.37 2°54.04 18.470234 4.353376 32.608148 1.5447
2003-09-18 06:28:52 51°15.4 2°54.03 18.481152 4.362026 32.682857 1.5447
2003-09-18 06:28:56 51°15.41 2°54.02 18.481152 4.362026 32.682857 1.5447
2003-09-18 06:29:02 51°15.43 2°54 18.381087 4.36192 32.682546 1.612118
2003-09-18 06:29:06 51°15.45 2°53.99 18.486031 4.359916 32.663474 1.645828
2003-09-18 06:29:12 51°15.47 2°53.98 18.420998 4.359494 32.655365 1.679537
2003-09-18 06:29:16 51°15.48 2°53.97 18.490745 4.360443 32.658737 1.780665
2003-09-18 06:29:22 51°15.5 2°53.95 18.386885 4.358228 32.632195 1.746956
2003-09-18 06:29:26 51°15.52 2°53.94 18.386885 4.358228 32.632195 1.746956
2003-09-18 06:29:32 51°15.54 2°53.93 18.383945 4.359916 32.641748 1.814375
2003-09-18 06:29:36 51°15.55 2°53.91 18.717498 4.35981 32.636295 1.780665
2003-09-18 06:29:42 51°15.57 2°53.9 18.444834 4.360337 32.638423 1.780665
2003-09-18 06:29:46 51°15.59 2°53.89 18.44471 4.354747 32.589376 1.780665
2003-09-18 06:29:52 51°15.61 2°53.87 18.513441 4.355063 32.592593 1.780665
2003-09-18 06:29:56 51°15.62 2°53.86 18.513441 4.355063 32.592593 1.780665
2003-09-18 06:30:02 51°15.64 2°53.85 18.446365 4.36192 32.650518 1.746956
2003-09-18 06:30:06 51°15.66 2°53.83 18.418018 4.362763 32.658721 1.679537
2003-09-18 06:30:12 51°15.68 2°53.82 18.488967 4.354642 32.593056 1.713247
2003-09-18 06:30:16 51°15.69 2°53.81 18.454019 4.349051 32.546297 1.679537
2003-09-18 06:30:22 51°15.71 2°53.79 18.388086 4.366139 32.689826 1.612118
2003-09-18 06:30:26 51°15.73 2°53.78 18.388086 4.366139 32.689826 1.612118
2003-09-18 06:30:32 51°15.75 2°53.76 18.553896 4.35981 32.636866 1.612118
2003-09-18 06:30:36 51°15.76 2°53.75 18.419798 4.368143 32.707171 1.578409
2003-09-18 06:30:42 51°15.78 2°53.73 18.552533 4.36867 32.708151 1.5447
2003-09-18 06:30:46 51°15.8 2°53.72 18.452653 4.370253 32.719675 1.5447
2003-09-18 06:30:52 51°15.82 2°53.71 18.417314 4.361076 32.642316 1.477281
2003-09-18 06:30:56 51°15.83 2°53.69 18.417314 4.361076 32.642316 1.477281
2003-09-18 06:31:02 51°15.85 2°53.68 18.485039 4.364662 32.671178 1.443571
2003-09-18 06:31:06 51°15.87 2°53.67 18.450419 4.357595 32.613197 1.308734
2003-09-18 06:31:12 51°15.89 2°53.65 18.550219 4.373101 32.743512 1.308734
2003-09-18 06:31:16 51°15.9 2°53.64 18.553359 4.378902 32.792076 1.308734
2003-09-18 06:31:22 51°15.92 2°53.62 18.553359 4.378902 32.792076 1.308734
2003-09-18 06:31:26 51°15.94 2°53.61 18.482103 4.369409 32.71433 1.275024
2003-09-18 06:31:32 51°15.96 2°53.59 18.418556 4.377215 32.779668 1.207606
2003-09-18 06:31:36 51°15.97 2°53.58 18.555176 4.376371 32.772603 1.241315
2003-09-18 06:31:42 51°15.99 2°53.57 18.486858 4.376054 32.771101 1.207606
2003-09-18 06:31:46 51°16 2°53.55 18.388417 4.381856 32.82025 1.207606
2003-09-18 06:31:52 51°16.03 2°53.54 18.423564 4.383122 32.830849 1.173896
2003-09-18 06:31:56 51°16.04 2°53.53 18.423564 4.383122 32.830849 1.173896
2003-09-18 06:32:02 51°16.06 2°53.51 18.525179 4.380696 32.809959 1.173896
2003-09-18 06:32:06 51°16.07 2°53.5 18.628462 4.382594 32.825858 1.207606
2003-09-18 06:32:12 51°16.09 2°53.48 18.594451 4.379219 32.796447 1.207606
2003-09-18 06:32:16 51°16.11 2°53.47 18.562033 4.383965 32.834468 1.173896
2003-09-18 06:32:22 51°16.13 2°53.46 18.462416 4.388712 32.873068 1.207606
2003-09-18 06:32:26 51°16.14 2°53.44 18.462416 4.388712 32.873068 1.207606
2003-09-18 06:32:32 51°16.16 2°53.43 18.433414 4.386814 32.858317 1.207606
2003-09-18 06:32:36 51°16.18 2°53.42 18.566907 4.389662 32.880443 1.207606
2003-09-18 06:32:42 51°16.2 2°53.4 18.434034 4.373417 32.743869 1.207606
2003-09-18 06:32:46 51°16.21 2°53.39 18.466263 4.394936 32.924042 1.207606
2003-09-18 06:32:52 51°16.23 2°53.37 18.398479 4.385864 32.847493 1.241315
2003-09-18 06:32:56 51°16.25 2°53.36 18.398479 4.385864 32.847493 1.241315
2003-09-18 06:33:02 51°16.27 2°53.35 18.470606 4.388396 32.865817 1.207606
2003-09-18 06:33:06 51°16.28 2°53.34 18.610096 4.39694 32.936796 1.207606
2003-09-18 06:33:12 51°16.3 2°53.32 18.44802 4.396307 32.930919 1.173896
2003-09-18 06:33:16 51°16.32 2°53.31 18.488264 4.374577 32.747277 1.241315
2003-09-18 06:33:22 51°16.34 2°53.3 18.42853 4.396835 32.934184 1.241315
2003-09-18 06:33:26 51°16.35 2°53.29 18.42853 4.396835 32.934184 1.241315
2003-09-18 06:33:32 51°16.38 2°53.27 18.535676 4.401265 32.97014 1.241315
2003-09-18 06:33:36 51°16.39 2°53.26 18.542824 4.399155 32.950163 1.241315
2003-09-18 06:33:42 51°16.41 2°53.25 18.551789 4.401265 32.96495 1.275024
2003-09-18 06:33:46 51°16.42 2°53.24 18.558481 4.399999 32.952043 1.275024
2003-09-18 06:33:52 51°16.45 2°53.22 18.531171 4.403902 32.978962 1.308734
2003-09-18 06:33:56 51°16.46 2°53.21 18.531171 4.403902 32.978962 1.308734
2003-09-18 06:34:02 51°16.48 2°53.2 18.605391 4.40559 32.987904 1.342443
2003-09-18 06:34:06 51°16.5 2°53.19 18.811978 4.401897 32.952383 1.376153
2003-09-18 06:34:12 51°16.52 2°53.17 18.650453 4.399893 32.929851 1.443571
2003-09-18 06:34:16 51°16.53 2°53.16 18.48814 4.412446 33.028577 1.409862
2003-09-18 06:34:22 51°16.55 2°53.15 18.663282 4.407277 32.978974 1.443571
2003-09-18 06:34:26 51°16.57 2°53.13 18.663282 4.407277 32.978974 1.443571
2003-09-18 06:34:32 51°16.59 2°53.12 18.601139 4.41445 33.036697 1.51099
2003-09-18 06:34:36 51°16.6 2°53.11 18.539601 4.402741 32.932968 1.477281
2003-09-18 06:34:42 51°16.62 2°53.09 18.681015 4.407066 32.963389 1.51099
2003-09-18 06:34:46 51°16.64 2°53.08 18.617773 4.416454 33.038467 1.5447
2003-09-18 06:34:52 51°16.66 2°53.07 18.520964 4.421201 33.072988 1.5447
2003-09-18 06:34:56 51°16.67 2°53.06 18.520964 4.421201 33.072988 1.5447
2003-09-18 06:35:02 51°16.69 2°53.04 18.526212 4.42215 33.07689 1.578409
2003-09-18 06:35:06 51°16.71 2°53.03 18.531709 4.418458 33.039662 1.578409
2003-09-18 06:35:12 51°16.73 2°53.02 18.608156 4.428901 33.12008 1.612118
2003-09-18 06:35:16 51°16.74 2°53.01 18.5826 4.429429 33.118714 1.612118
2003-09-18 06:35:22 51°16.76 2°52.99 18.622973 4.430273 33.123461 1.645828
2003-09-18 06:35:26 51°16.78 2°52.98 18.622973 4.430273 33.123461 1.645828
2003-09-18 06:35:32 51°16.8 2°52.96 18.69627 4.432171 33.136451 1.645828
2003-09-18 06:35:36 51°16.81 2°52.95 18.773238 4.417086 33.007461 1.679537
2003-09-18 06:35:42 51°16.83 2°52.94 18.678582 4.430483 33.115407 1.645828
2003-09-18 06:35:46 51°16.85 2°52.93 18.548938 4.440294 33.191076 1.645828
2003-09-18 06:35:52 51°16.87 2°52.91 18.858223 4.440927 33.190583 1.645828
2003-09-18 06:35:56 51°16.88 2°52.9 18.858223 4.440927 33.190583 1.645828
2003-09-18 06:36:02 51°16.9 2°52.89 18.696889 4.437973 33.161845 1.645828
2003-09-18 06:36:06 51°16.92 2°52.88 18.566618 4.442931 33.196927 1.679537
2003-09-18 06:36:12 51°16.94 2°52.86 18.674995 4.442509 33.187619 1.679537
2003-09-18 06:36:16 51°16.95 2°52.85 18.647318 4.445146 33.205032 1.679537
2003-09-18 06:36:22 51°16.97 2°52.84 18.75215 4.44483 33.197185 1.713247
2003-09-18 06:36:26 51°16.99 2°52.82 18.75215 4.44483 33.197185 1.713247
2003-09-18 06:36:32 51°17.01 2°52.81 18.723804 4.45021 33.23751 1.713247
2003-09-18 06:36:36 51°17.02 2°52.8 18.659817 4.45253 33.251693 1.780665
2003-09-18 06:36:42 51°17.05 2°52.78 18.762159 4.440504 33.147201 1.746956
2003-09-18 06:36:46 51°17.06 2°52.77 18.662044 4.449365 33.216003 1.780665
2003-09-18 06:36:52 51°17.08 2°52.76 18.762159 4.447572 33.196405 1.746956
2003-09-18 06:36:56 51°17.1 2°52.75 18.762159 4.447572 33.196405 1.746956
2003-09-18 06:37:02 51°17.12 2°52.73 18.69322 4.452003 33.229357 1.780665
2003-09-18 06:37:06 51°17.13 2°52.73 18.687942 4.444723 33.164547 1.780665
2003-09-18 06:37:12 51°17.16 2°52.71 18.750338 4.454745 33.246478 1.780665
2003-09-18 06:37:16 51°17.17 2°52.71 18.608115 4.455484 33.249174 1.780665
2003-09-18 06:37:22 51°17.19 2°52.7 18.708761 4.447677 33.183432 1.814375
2003-09-18 06:37:26 51°17.21 2°52.7 18.708761 4.447677 33.183432 1.814375
2003-09-18 06:37:32 51°17.23 2°52.7 18.77505 4.451264 33.21337 1.848084
2003-09-18 06:37:36 51°17.25 2°52.7 18.565462 4.454007 33.236844 1.848084
2003-09-18 06:37:42 51°17.27 2°52.7 18.564346 4.43101 33.046663 1.814375
2003-09-18 06:37:46 51°17.29 2°52.7 18.600148 4.430693 33.045747 1.814375
2003-09-18 06:37:52 51°17.31 2°52.69 18.70031 4.4558 33.259335 1.780665
2003-09-18 06:37:56 51°17.33 2°52.69 18.70031 4.4558 33.259335 1.780665
2003-09-18 06:38:02 51°17.35 2°52.69 18.565916 4.448732 33.203206 1.780665
2003-09-18 06:38:06 51°17.37 2°52.69 18.532246 4.446622 33.187323 1.848084
2003-09-18 06:38:12 51°17.39 2°52.69 18.567651 4.451264 33.230127 1.780665
2003-09-18 06:38:16 51°17.41 2°52.69 18.602171 4.453902 33.253311 1.780665
2003-09-18 06:38:22 51°17.43 2°52.69 18.703402 4.445779 33.18605 1.746956
2003-09-18 06:38:26 51°17.45 2°52.68 18.703402 4.445779 33.18605 1.746956
2003-09-18 06:38:32 51°17.47 2°52.68 18.601882 4.452214 33.239213 1.780665
2003-09-18 06:38:36 51°17.49 2°52.68 18.498518 4.451686 33.235386 1.746956
2003-09-18 06:38:42 51°17.51 2°52.68 18.635394 4.45464 33.260058 1.814375
2003-09-18 06:38:46 51°17.52 2°52.68 18.601056 4.444407 33.175176 1.814375
2003-09-18 06:38:52 51°17.55 2°52.68 18.668025 4.44388 33.170195 1.746956
2003-09-18 06:38:56 51°17.56 2°52.67 18.668025 4.44388 33.170195 1.746956
2003-09-18 06:39:02 51°17.59 2°52.67 18.563355 4.431115 33.063641 1.746956
2003-09-18 06:39:06 51°17.6 2°52.67 18.799053 4.450948 33.228062 1.780665
2003-09-18 06:39:12 51°17.63 2°52.67 18.561662 4.451686 33.23423 1.814375
2003-09-18 06:39:16 51°17.64 2°52.67 18.596019 4.443352 33.165214 1.814375
2003-09-18 06:39:22 51°17.67 2°52.66 18.697507 4.441348 33.150209 1.780665
2003-09-18 06:39:26 51°17.68 2°52.66 18.697507 4.441348 33.150209 1.780665
2003-09-18 06:39:32 51°17.71 2°52.66 18.595483 4.445251 33.182801 1.780665
2003-09-18 06:39:36 51°17.72 2°52.66 18.697136 4.444407 33.175753 1.780665
2003-09-18 06:39:42 51°17.75 2°52.66 18.59474 4.448205 33.208623 1.780665
2003-09-18 06:39:46 51°17.76 2°52.65 18.662209 4.43312 33.083247 1.814375
2003-09-18 06:39:52 51°17.79 2°52.65 18.660106 4.439238 33.133748 1.780665
2003-09-18 06:39:56 51°17.8 2°52.65 18.660106 4.439238 33.133748 1.780665
2003-09-18 06:40:02 51°17.83 2°52.65 18.556209 4.448205 33.209201 1.780665
2003-09-18 06:40:06 51°17.84 2°52.65 18.588092 4.448627 33.213881 1.814375
2003-09-18 06:40:12 51°17.87 2°52.64 18.687695 4.446306 33.195653 1.881794
2003-09-18 06:40:16 51°17.88 2°52.64 18.717498 4.440926 33.14957 1.848084
2003-09-18 06:40:22 51°17.9 2°52.64 18.580742 4.443458 33.171289 1.848084
2003-09-18 06:40:26 51°17.92 2°52.64 18.580742 4.443458 33.171289 1.848084
2003-09-18 06:40:32 51°17.94 2°52.63 18.609188 4.442086 33.160991 1.848084
2003-09-18 06:40:36 51°17.96 2°52.63 18.607991 4.42985 33.060554 1.848084
2003-09-18 06:40:42 51°17.98 2°52.63 18.635931 4.444513 33.184141 1.848084
2003-09-18 06:40:46 51°18 2°52.63 18.566536 4.444407 33.184992 1.848084
2003-09-18 06:40:52 51°18.02 2°52.62 18.700599 4.438605 33.137689 1.780665
2003-09-18 06:40:56 51°18.04 2°52.62 18.700599 4.438605 33.137689 1.780665
2003-09-18 06:41:02 51°18.06 2°52.62 18.62545 4.438711 33.141455 1.780665
2003-09-18 06:41:06 51°18.08 2°52.61 18.555548 4.427529 33.050961 1.814375
2003-09-18 06:41:12 51°18.1 2°52.61 18.654537 4.444091 33.192749 1.780665
2003-09-18 06:41:16 51°18.12 2°52.61 18.546377 4.441032 33.1695 1.780665
2003-09-18 06:41:22 51°18.14 2°52.61 18.680273 4.435019 33.121576 1.780665
2003-09-18 06:41:26 51°18.16 2°52.61 18.680273 4.435019 33.121576 1.780665
2003-09-18 06:41:32 51°18.18 2°52.6 18.573268 4.444302 33.200293 1.814375
2003-09-18 06:41:36 51°18.2 2°52.6 18.60634 4.425841 33.05068 1.780665
2003-09-18 06:41:42 51°18.22 2°52.6 18.540634 4.441032 33.179323 1.780665
2003-09-18 06:41:46 51°18.24 2°52.61 18.702866 4.441454 33.185161 1.780665
2003-09-18 06:41:52 51°18.26 2°52.61 18.607826 4.439766 33.175678 1.746956
2003-09-18 06:41:56 51°18.28 2°52.61 18.607826 4.439766 33.175678 1.746956
2003-09-18 06:42:02 51°18.3 2°52.62 18.602253 4.432171 33.114509 1.780665
2003-09-18 06:42:06 51°18.32 2°52.63 18.50257 4.439872 33.181186 1.780665
2003-09-18 06:42:12 51°18.34 2°52.65 18.534725 4.441032 33.192044 1.746956
2003-09-18 06:42:16 51°18.35 2°52.66 18.739338 4.436602 33.15616 1.746956
2003-09-18 06:42:22 51°18.37 2°52.67 18.567857 4.441032 33.194358 1.746956
2003-09-18 06:42:26 51°18.39 2°52.68 18.567857 4.441032 33.194358 1.746956
2003-09-18 06:42:32 51°18.41 2°52.7 18.66852 4.423943 33.050364 1.746956
2003-09-18 06:42:36 51°18.42 2°52.72 18.464112 4.427319 33.079724 1.746956
2003-09-18 06:42:42 51°18.44 2°52.74 18.603038 4.442298 33.204942 1.746956
2003-09-18 06:42:46 51°18.45 2°52.75 18.50877 4.444514 33.224625 1.746956
2003-09-18 06:42:52 51°18.47 2°52.78 18.50877 4.444514 33.224625 1.746956
2003-09-18 06:42:56 51°18.48 2°52.8 18.602047 4.443248 33.214039 1.780665
2003-09-18 06:43:02 51°18.5 2°52.83 18.570666 4.43618 33.1561 1.746956
2003-09-18 06:43:06 51°18.51 2°52.85 18.569881 4.437446 33.166683 1.746956
2003-09-18 06:43:12 51°18.52 2°52.88 18.59924 4.440505 33.190526 1.780665
2003-09-18 06:43:16 51°18.52 2°52.9 18.531998 4.431855 33.11648 1.814375
2003-09-18 06:43:22 51°18.53 2°52.94 18.464608 4.436707 33.15762 1.746956
2003-09-18 06:43:26 51°18.54 2°52.96 18.464608 4.436707 33.15762 1.746956
2003-09-18 06:43:32 51°18.55 2°53 18.667612 4.443775 33.216134 1.780665
2003-09-18 06:43:36 51°18.56 2°53.02 18.4998 4.43312 33.127638 1.746956
2003-09-18 06:43:42 51°18.56 2°53.05 18.566164 4.442615 33.207589 1.780665
2003-09-18 06:43:46 51°18.57 2°53.08 18.49827 4.443986 33.219635 1.814375
2003-09-18 06:43:52 51°18.58 2°53.11 18.467587 4.430167 33.104682 1.814375
2003-09-18 06:43:56 51°18.58 2°53.14 18.467587 4.430167 33.104682 1.814375
2003-09-18 06:44:02 51°18.59 2°53.17 18.569303 4.439239 33.181677 1.814375
2003-09-18 06:44:06 51°18.6 2°53.2 18.536378 4.441982 33.205769 1.814375
2003-09-18 06:44:12 51°18.61 2°53.23 18.570583 4.434175 33.139344 1.814375
2003-09-18 06:44:16 51°18.62 2°53.25 18.539023 4.423415 33.050565 1.848084
2003-09-18 06:44:22 51°18.63 2°53.29 18.64179 4.442404 33.209297 1.848084
2003-09-18 06:44:26 51°18.63 2°53.31 18.64179 4.442404 33.209297 1.848084
2003-09-18 06:44:32 51°18.64 2°53.35 18.508026 4.439872 33.186969 1.848084
2003-09-18 06:44:36 51°18.65 2°53.37 18.679283 4.440716 33.193447 1.848084
2003-09-18 06:44:42 51°18.66 2°53.4 18.61344 4.441243 33.197858 1.848084
2003-09-18 06:44:46 51°18.67 2°53.43 18.547286 4.437024 33.161421 1.848084
2003-09-18 06:44:52 51°18.68 2°53.46 18.617567 4.438395 33.172308 1.848084
2003-09-18 06:44:56 51°18.68 2°53.48 18.617567 4.438395 33.172308 1.848084
2003-09-18 06:45:02 51°18.69 2°53.52 18.621323 4.440505 33.189369 1.881794
2003-09-18 06:45:06 51°18.7 2°53.54 18.758905 4.429112 33.091828 1.848084
2003-09-18 06:45:12 51°18.71 2°53.58 18.626976 4.427002 33.073621 1.881794
2003-09-18 06:45:16 51°18.72 2°53.6 18.528527 4.443353 33.209133 1.881794
2003-09-18 06:45:22 51°18.73 2°53.63 18.766607 4.43945 33.174189 1.881794
2003-09-18 06:45:26 51°18.73 2°53.66 18.766607 4.43945 33.174189 1.881794
2003-09-18 06:45:30 51°18.74 2°53.68 18.598786 4.439344 33.170996 1.915503
2003-09-18 06:45:36 51°18.75 2°53.71 18.668066 4.43312 33.117249 1.915503
2003-09-18 06:45:42 51°18.76 2°53.75 18.568477 4.442087 33.190452 1.949212
2003-09-18 06:45:46 51°18.77 2°53.77 18.636839 4.438289 33.156402 1.881794
2003-09-18 06:45:52 51°18.78 2°53.8 18.669633 4.43523 33.129685 1.949212
2003-09-18 06:45:56 51°18.79 2°53.83 18.669633 4.43523 33.129685 1.949212
2003-09-18 06:46:02 51°18.8 2°53.86 18.633373 4.433437 33.112394 1.982922
2003-09-18 06:46:06 51°18.8 2°53.88 18.633826 4.419301 32.993188 2.050341
2003-09-18 06:46:12 51°18.81 2°53.92 18.532163 4.435124 33.124187 2.08405
2003-09-18 06:46:16 51°18.82 2°53.94 18.530428 4.433542 33.110392 1.982922
2003-09-18 06:46:22 51°18.83 2°53.98 18.564057 4.432382 33.100123 1.982922
2003-09-18 06:46:26 51°18.83 2°54 18.564057 4.432382 33.100123 1.982922
2003-09-18 06:46:32 51°18.85 2°54.03 18.596928 4.440715 33.169166 1.982922
2003-09-18 06:46:36 51°18.85 2°54.06 18.663571 4.42658 33.05109 1.982922
2003-09-18 06:46:42 51°18.86 2°54.09 18.597836 4.43523 33.124492 1.915503
2003-09-18 06:46:46 51°18.87 2°54.11 18.528155 4.433226 33.107749 1.915503
2003-09-18 06:46:52 51°18.88 2°54.15 18.798518 4.433753 33.112731 1.982922
2003-09-18 06:46:56 51°18.89 2°54.17 18.798518 4.433753 33.112731 1.982922
2003-09-18 06:47:02 51°18.9 2°54.2 18.563149 4.426896 33.056036 1.949212
2003-09-18 06:47:06 51°18.91 2°54.22 18.662581 4.434175 33.116833 1.881794
2003-09-18 06:47:12 51°18.92 2°54.26 18.525014 4.427318 33.060136 1.949212
2003-09-18 06:47:16 51°18.92 2°54.28 18.559472 4.424997 33.040754 2.016631
2003-09-18 06:47:22 51°18.93 2°54.32 18.561414 4.431221 33.093889 1.949212
2003-09-18 06:47:26 51°18.94 2°54.34 18.561414 4.431221 33.093889 1.949212
2003-09-18 06:47:32 51°18.95 2°54.37 18.527948 4.410756 32.92358 1.915503
2003-09-18 06:47:36 51°18.96 2°54.4 18.66687 4.428901 33.074503 1.949212
2003-09-18 06:47:42 51°18.97 2°54.43 18.670169 4.397676 32.814998 2.016631
2003-09-18 06:47:46 51°18.97 2°54.45 18.640511 4.418985 32.99227 1.915503
2003-09-18 06:47:52 51°18.98 2°54.49 18.64212 4.419618 32.997554 1.982922
2003-09-18 06:47:56 51°18.99 2°54.51 18.64212 4.419618 32.997554 1.982922
2003-09-18 06:48:02 51°19 2°54.54 18.576076 4.412444 32.938242 1.915503
2003-09-18 06:48:06 51°19.01 2°54.57 18.64641 4.411917 32.933266 2.050341
2003-09-18 06:48:12 51°19.02 2°54.6 18.681015 4.39409 32.782794 2.016631
2003-09-18 06:48:16 51°19.02 2°54.62 18.61703 4.396305 32.798988 2.050341
2003-09-18 06:48:22 51°19.03 2°54.66 18.518856 4.41044 32.91406 2.050341
2003-09-18 06:48:26 51°19.04 2°54.68 18.518856 4.41044 32.91406 2.050341
2003-09-18 06:48:32 51°19.05 2°54.71 18.523113 4.402212 32.843121 1.982922
2003-09-18 06:48:36 51°19.06 2°54.74 18.595483 4.40506 32.866309 2.08405
2003-09-18 06:48:42 51°19.07 2°54.77 18.73324 4.393984 32.772784 2.016631
2003-09-18 06:48:46 51°19.08 2°54.79 18.635188 4.389764 32.734753 2.08405
2003-09-18 06:48:52 51°19.09 2°54.83 18.671613 4.397254 32.795487 2.016631
2003-09-18 06:48:56 51°19.09 2°54.85 18.671613 4.397254 32.795487 2.016631
2003-09-18 06:49:02 51°19.1 2°54.89 18.640304 4.400946 32.823991 2.117759
2003-09-18 06:49:06 51°19.11 2°54.91 18.642037 4.409174 32.889182 2.151469
2003-09-18 06:49:12 51°19.12 2°54.94 18.746877 4.415819 32.941754 2.151469
2003-09-18 06:49:16 51°19.13 2°54.96 18.6825 4.411389 32.901934 2.117759
2003-09-18 06:49:22 51°19.14 2°55 18.685468 4.400946 32.813712 2.151469
2003-09-18 06:49:26 51°19.15 2°55.02 18.685468 4.400946 32.813712 2.151469
2003-09-18 06:49:32 51°19.16 2°55.06 18.721414 4.398098 32.786548 2.185178
2003-09-18 06:49:36 51°19.16 2°55.08 18.589331 4.385861 32.683448 2.08405
2003-09-18 06:49:42 51°19.17 2°55.11 18.625243 4.387127 32.691151 2.117759
2003-09-18 06:49:46 51°19.18 2°55.14 18.693178 4.416769 32.935348 2.151469
2003-09-18 06:49:52 51°19.19 2°55.17 18.628462 4.41603 32.926327 2.151469
2003-09-18 06:49:56 51°19.2 2°55.19 18.628462 4.41603 32.926327 2.151469
2003-09-18 06:50:02 51°19.21 2°55.23 18.766154 4.408857 32.866526 2.151469
2003-09-18 06:50:06 51°19.21 2°55.25 18.634115 4.405903 32.839623 2.185178
2003-09-18 06:50:12 51°19.22 2°55.28 18.669881 4.412865 32.895366 2.185178
2003-09-18 06:50:16 51°19.23 2°55.31 18.636385 4.410967 32.877253 2.252597
2003-09-18 06:50:22 51°19.24 2°55.34 18.705092 4.38776 32.681647 2.218888
2003-09-18 06:50:26 51°19.25 2°55.36 18.705092 4.38776 32.681647 2.218888
2003-09-18 06:50:32 51°19.26 2°55.4 18.73942 4.40622 32.834268 2.252597
2003-09-18 06:50:36 51°19.27 2°55.42 18.706782 4.411705 32.878263 2.218888
2003-09-18 06:50:42 51°19.28 2°55.46 18.74078 4.384279 32.648124 2.286306
2003-09-18 06:50:46 51°19.28 2°55.48 18.673716 4.402211 32.796881 2.286306
2003-09-18 06:50:52 51°19.29 2°55.51 18.604978 4.414237 32.894788 2.320016
2003-09-18 06:50:56 51°19.3 2°55.53 18.604978 4.414237 32.894788 2.320016
2003-09-18 06:51:02 51°19.31 2°55.57 18.637581 4.413815 32.889557 2.387435
2003-09-18 06:51:06 51°19.32 2°55.59 18.536378 4.407696 32.838582 2.320016
2003-09-18 06:51:12 51°19.33 2°55.63 18.634569 4.406641 32.829795 2.421144
2003-09-18 06:51:16 51°19.34 2°55.65 18.635766 4.396304 32.743128 2.421144
2003-09-18 06:51:22 51°19.35 2°55.68 18.665592 4.405903 32.823074 2.387435
2003-09-18 06:51:26 51°19.35 2°55.71 18.665592 4.405903 32.823074 2.387435
2003-09-18 06:51:32 51°19.36 2°55.74 18.663158 4.41065 32.861476 2.387435
2003-09-18 06:51:36 51°19.37 2°55.76 18.698249 4.397359 32.751912 2.320016
2003-09-18 06:51:42 51°19.38 2°55.8 18.762859 4.406747 32.831244 2.353725
2003-09-18 06:51:46 51°19.39 2°55.82 18.62937 4.40854 32.846183 2.320016
2003-09-18 06:51:52 51°19.4 2°55.85 18.694374 4.409384 32.854356 2.320016
2003-09-18 06:51:56 51°19.41 2°55.88 18.694374 4.409384 32.854356 2.320016
2003-09-18 06:52:02 51°19.42 2°55.91 18.657631 4.399257 32.772279 2.320016
2003-09-18 06:52:06 51°19.42 2°55.93 18.722897 4.387654 32.675089 2.252597
2003-09-18 06:52:12 51°19.43 2°55.97 18.757876 4.407063 32.839016 2.252597
2003-09-18 06:52:16 51°19.44 2°55.99 18.721496 4.39873 32.770734 2.252597
2003-09-18 06:52:22 51°19.45 2°56.03 18.72026 4.409701 32.862132 2.252597
2003-09-18 06:52:26 51°19.46 2°56.05 18.72026 4.409701 32.862132 2.252597
2003-09-18 06:52:32 51°19.47 2°56.08 18.686128 4.407802 32.848023 2.218888
2003-09-18 06:52:38 51°19.48 2°56.12 18.583963 4.409806 32.865296 2.218888
2003-09-18 06:52:42 51°19.49 2°56.14 18.720342 4.40949 32.863802 2.185178
2003-09-18 06:52:46 51°19.49 2°56.16 18.717869 4.404848 32.826266 2.218888
2003-09-18 06:52:52 51°19.51 2°56.2 18.581362 4.408224 32.854966 2.185178
2003-09-18 06:52:56 51°19.51 2°56.22 18.581362 4.408224 32.854966 2.185178
2003-09-18 06:53:02 51°19.52 2°56.25 18.681551 4.40949 32.866658 2.218888
2003-09-18 06:53:06 51°19.53 2°56.27 18.645627 4.409173 32.866878 2.252597
2003-09-18 06:53:12 51°19.54 2°56.31 18.780444 4.404743 32.828811 2.218888
2003-09-18 06:53:16 51°19.55 2°56.33 18.677757 4.409068 32.865427 2.218888
2003-09-18 06:53:22 51°19.56 2°56.37 18.612449 4.405481 32.835535 2.252597
2003-09-18 06:53:26 51°19.56 2°56.39 18.612449 4.405481 32.835535 2.252597
2003-09-18 06:53:32 51°19.57 2°56.42 18.781432 4.408962 32.864548 2.252597
2003-09-18 06:53:36 51°19.58 2°56.45 18.783861 4.40833 32.860987 2.252597
2003-09-18 06:53:42 51°19.59 2°56.48 18.580536 4.407802 32.858305 2.252597
2003-09-18 06:53:46 51°19.6 2°56.5 18.750338 4.408013 32.860635 2.252597
2003-09-18 06:53:52 51°19.61 2°56.54 18.785344 4.407908 32.859184 2.286306
2003-09-18 06:53:56 51°19.62 2°56.56 18.785344 4.407908 32.859184 2.286306
2003-09-18 06:54:02 51°19.63 2°56.59 18.618929 4.406642 32.849775 2.286306
2003-09-18 06:54:06 51°19.63 2°56.62 18.653341 4.405798 32.841028 2.252597
2003-09-18 06:54:12 51°19.64 2°56.65 18.553359 4.404532 32.829907 2.286306
2003-09-18 06:54:16 51°19.65 2°56.67 18.754539 4.402317 32.811446 2.286306
2003-09-18 06:54:22 51°19.66 2°56.71 18.587349 4.402528 32.812633 2.286306
2003-09-18 06:54:26 51°19.67 2°56.73 18.587349 4.402528 32.812633 2.286306
2003-09-18 06:54:32 51°19.68 2°56.76 18.654579 4.401367 32.802393 2.320016
2003-09-18 06:54:36 51°19.69 2°56.79 18.725535 4.399996 32.790397 2.286306
2003-09-18 06:54:42 51°19.7 2°56.82 18.654991 4.397992 32.773128 2.286306
2003-09-18 06:54:46 51°19.71 2°56.84 18.65462 4.397464 32.767025 2.286306
2003-09-18 06:54:52 51°19.72 2°56.88 18.653382 4.397253 32.764128 2.252597
2003-09-18 06:54:56 51°19.72 2°56.9 18.653382 4.397253 32.764128 2.252597
2003-09-18 06:55:02 51°19.73 2°56.93 18.654744 4.397042 32.76237 2.252597
2003-09-18 06:55:06 51°19.74 2°56.96 18.65363 4.395671 32.749239 2.252597
2003-09-18 06:55:12 51°19.75 2°56.99 18.724298 4.396515 32.757407 2.218888
2003-09-18 06:55:16 51°19.76 2°57.01 18.624418 4.394405 32.739834 2.286306
2003-09-18 06:55:22 51°19.77 2°57.05 18.592304 4.394616 32.740453 2.252597
2003-09-18 06:55:26 51°19.78 2°57.07 18.592304 4.394616 32.740453 2.252597
2003-09-18 06:55:32 51°19.79 2°57.1 18.593088 4.392085 32.721074 2.320016
2003-09-18 06:55:36 51°19.79 2°57.13 18.628792 4.390608 32.709343 2.320016
2003-09-18 06:55:42 51°19.8 2°57.16 18.729861 4.390819 32.709962 2.353725
2003-09-18 06:55:46 51°19.81 2°57.18 18.730768 4.393034 32.727274 2.387435
2003-09-18 06:55:52 51°19.82 2°57.22 18.627595 4.391241 32.711771 2.421144
2003-09-18 06:55:56 51°19.83 2°57.24 18.627595 4.391241 32.711771 2.421144
2003-09-18 06:56:02 51°19.84 2°57.27 18.629741 4.39103 32.708308 2.387435
2003-09-18 06:56:06 51°19.85 2°57.3 18.662416 4.383435 32.644504 2.387435
2003-09-18 06:56:12 51°19.86 2°57.33 18.730232 4.386705 32.670024 2.353725
2003-09-18 06:56:16 51°19.87 2°57.35 18.764507 4.380798 32.62085 2.421144
2003-09-18 06:56:22 51°19.88 2°57.39 18.628999 4.386388 32.66739 2.421144
2003-09-18 06:56:26 51°19.88 2°57.41 18.628999 4.386388 32.66739 2.421144
2003-09-18 06:56:32 51°19.89 2°57.44 18.628627 4.378688 32.602724 2.387435
2003-09-18 06:56:36 51°19.9 2°57.47 18.730438 4.386705 32.670024 2.387435
2003-09-18 06:56:42 51°19.91 2°57.5 18.694127 4.380481 32.61765 2.353725
2003-09-18 06:56:46 51°19.92 2°57.52 18.692972 4.385333 32.658608 2.387435
2003-09-18 06:56:52 51°19.93 2°57.56 18.625862 4.368351 32.517271 2.353725
2003-09-18 06:56:56 51°19.93 2°57.58 18.625862 4.368351 32.517271 2.353725
2003-09-18 06:57:02 51°19.94 2°57.62 18.728543 4.384068 32.64807 2.387435
2003-09-18 06:57:06 51°19.95 2°57.64 18.66023 4.3847 32.651637 2.353725
2003-09-18 06:57:12 51°19.96 2°57.67 18.627265 4.379215 32.606547 2.320016
2003-09-18 06:57:18 51°19.97 2°57.71 18.694498 4.379848 32.612948 2.353725
2003-09-18 06:57:22 51°19.98 2°57.73 18.5954 4.382169 32.633966 2.320016
2003-09-18 06:57:26 51°19.99 2°57.75 18.5954 4.382169 32.633966 2.320016
2003-09-18 06:57:32 51°20 2°57.79 18.731509 4.378899 32.606747 2.387435
2003-09-18 06:57:36 51°20 2°57.81 18.695528 4.362655 32.471016 2.353725
2003-09-18 06:57:42 51°20.01 2°57.84 18.730232 4.376684 32.587177 2.353725
2003-09-18 06:57:46 51°20.02 2°57.87 18.594285 4.37795 32.597712 2.353725
2003-09-18 06:57:52 51°20.03 2°57.9 18.628338 4.377211 32.591567 2.387435
2003-09-18 06:57:56 51°20.04 2°57.92 18.628338 4.377211 32.591567 2.387435
2003-09-18 06:58:02 51°20.05 2°57.96 18.593584 4.375418 32.576077 2.421144
2003-09-18 06:58:06 51°20.06 2°57.98 18.795924 4.376156 32.581655 2.421144
2003-09-18 06:58:12 51°20.07 2°58.01 18.695034 4.37468 32.569366 2.421144
2003-09-18 06:58:16 51°20.07 2°58.03 18.661096 4.357802 32.428405 2.421144
2003-09-18 06:58:22 51°20.08 2°58.07 18.72879 4.364764 32.487435 2.488563
2003-09-18 06:58:26 51°20.09 2°58.09 18.72879 4.364764 32.487435 2.488563
2003-09-18 06:58:32 51°20.1 2°58.13 18.626069 4.366768 32.504108 2.454853
2003-09-18 06:58:36 51°20.11 2°58.15 18.695446 4.36719 32.507618 2.454853
2003-09-18 06:58:42 51°20.12 2°58.18 18.660683 4.365608 32.494455 2.454853
2003-09-18 06:58:46 51°20.13 2°58.2 18.796336 4.3693 32.525734 2.488563
2003-09-18 06:58:52 51°20.14 2°58.24 18.59284 4.362338 32.466691 2.488563
2003-09-18 06:58:56 51°20.14 2°58.26 18.59284 4.362338 32.466691 2.488563
2003-09-18 06:59:02 51°20.15 2°58.3 18.899053 4.36487 32.489442 2.522272
2003-09-18 06:59:06 51°20.16 2°58.32 18.662044 4.36487 32.489442 2.522272
2003-09-18 06:59:12 51°20.17 2°58.35 18.763065 4.361178 32.457604 2.555982
2003-09-18 06:59:16 51°20.18 2°58.37 18.729161 4.36276 32.4702 2.522272
2003-09-18 06:59:22 51°20.19 2°58.41 18.731262 4.364342 32.483926 2.555982
2003-09-18 06:59:26 51°20.2 2°58.43 18.731262 4.364342 32.483926 2.555982
2003-09-18 06:59:32 51°20.21 2°58.46 18.732169 4.363077 32.473397 2.589691
2003-09-18 06:59:36 51°20.21 2°58.49 18.698991 4.359385 32.441563 2.589691
2003-09-18 06:59:42 51°20.22 2°58.52 18.732251 4.362233 32.466378 2.589691
2003-09-18 06:59:46 51°20.23 2°58.54 18.698125 4.361916 32.463746 2.555982
2003-09-18 06:59:52 51°20.24 2°58.58 18.766031 4.344301 32.316156 2.589691
2003-09-18 06:59:56 51°20.25 2°58.6 18.766031 4.344301 32.316156 2.589691
2003-09-18 07:00:02 51°20.26 2°58.64 18.733405 4.36065 32.45209 2.555982
2003-09-18 07:00:06 51°20.26 2°58.66 18.836297 4.359701 32.443631 2.555982
2003-09-18 07:00:12 51°20.27 2°58.7 18.736248 4.359068 32.438367 2.555982
2003-09-18 07:00:16 51°20.28 2°58.72 18.63655 4.360756 32.452403 2.589691
2003-09-18 07:00:22 51°20.29 2°58.75 18.604276 4.360334 32.447203 2.589691
2003-09-18 07:00:26 51°20.29 2°58.78 18.604276 4.360334 32.447203 2.589691
2003-09-18 07:00:32 51°20.3 2°58.81 18.806997 4.357697 32.424711 2.6234
2003-09-18 07:00:36 51°20.31 2°58.84 18.808356 4.360545 32.448957 2.589691
2003-09-18 07:00:42 51°20.31 2°58.87 18.705752 4.358013 32.426215 2.6234
2003-09-18 07:00:46 51°20.32 2°58.9 18.638737 4.354111 32.393203 2.589691
2003-09-18 07:00:52 51°20.33 2°58.93 18.672149 4.347254 32.33621 2.6234
2003-09-18 07:00:56 51°20.34 2°58.95 18.672149 4.347254 32.33621 2.6234
2003-09-18 07:01:02 51°20.34 2°58.99 18.740862 4.358541 32.42891 2.65711
2003-09-18 07:01:06 51°20.35 2°59.01 18.672438 4.359806 32.437745 2.6234
2003-09-18 07:01:12 51°20.36 2°59.05 18.73769 4.356959 32.414629 2.6234
2003-09-18 07:01:16 51°20.37 2°59.07 18.67252 4.35179 32.3711 2.6234
2003-09-18 07:01:22 51°20.37 2°59.11 18.807409 4.359701 32.435741 2.65711
2003-09-18 07:01:26 51°20.38 2°59.13 18.807409 4.359701 32.435741 2.65711
2003-09-18 07:01:32 51°20.39 2°59.16 18.673716 4.358013 32.422272 2.589691
2003-09-18 07:01:34 51°20.39 2°59.18 18.844196 4.358857 32.429851 2.6234
2003-09-18 07:01:42 51°20.4 2°59.22 18.710203 4.35833 32.424903 2.6234
2003-09-18 07:01:46 51°20.41 2°59.25 18.67883 4.358224 32.425153 2.65711
2003-09-18 07:01:52 51°20.42 2°59.28 18.612284 4.357275 32.416134 2.690819
2003-09-18 07:01:56 51°20.43 2°59.3 18.612284 4.357275 32.416134 2.690819
2003-09-18 07:02:02 51°20.43 2°59.34 18.647689 4.354849 32.395965 2.65711
2003-09-18 07:02:06 51°20.44 2°59.36 18.919398 4.358119 32.422023 2.758238
2003-09-18 07:02:12 51°20.45 2°59.4 18.786785 4.357908 32.419143 2.690819
2003-09-18 07:02:16 51°20.46 2°59.42 18.65264 4.352528 32.374425 2.690819
2003-09-18 07:02:22 51°20.46 2°59.46 18.754704 4.358963 32.424533 2.791947
2003-09-18 07:02:26 51°20.47 2°59.48 18.754704 4.358963 32.424533 2.791947
2003-09-18 07:02:32 51°20.48 2°59.51 18.822842 4.357169 32.41019 2.758238
2003-09-18 07:02:36 51°20.49 2°59.54 18.787979 4.348309 32.334305 2.791947
2003-09-18 07:02:42 51°20.49 2°59.57 18.789337 4.345356 32.309767 2.758238
2003-09-18 07:02:46 51°20.5 2°59.6 18.790572 4.355904 32.39573 2.758238
2003-09-18 07:02:52 51°20.51 2°59.63 18.757793 4.353794 32.375387 2.825657
2003-09-18 07:02:56 51°20.51 2°59.65 18.757793 4.353794 32.375387 2.825657
2003-09-18 07:03:02 51°20.52 2°59.69 18.759235 4.358857 32.418026 2.791947
2003-09-18 07:03:06 51°20.53 2°59.71 18.693013 4.357697 32.408383 2.724529
2003-09-18 07:03:12 51°20.54 2°59.75 18.827451 4.347571 32.32368 2.791947
2003-09-18 07:03:16 51°20.54 2°59.77 18.760429 4.35179 32.358173 2.758238
2003-09-18 07:03:22 51°20.55 2°59.81 18.658951 4.353583 32.373634 2.724529
2003-09-18 07:03:26 51°20.56 2°59.83 18.658951 4.353583 32.373634 2.724529
2003-09-18 07:03:32 51°20.57 2°59.87 18.659487 4.341558 32.272057 2.791947
2003-09-18 07:03:36 51°20.57 2°59.89 18.560009 4.340609 32.263053 2.758238
2003-09-18 07:03:42 51°20.58 2°59.92 18.795513 4.355903 32.388981 2.859366
2003-09-18 07:03:46 51°20.59 2°59.95 18.726771 4.357169 32.398937 2.758238
2003-09-18 07:03:52 51°20.6 2°59.98 18.829179 4.356009 32.389296 2.758238
2003-09-18 07:03:56 51°20.6 3°0.01 18.829179 4.356009 32.389296 2.758238
2003-09-18 07:04:02 51°20.61 3°0.04 18.660395 4.356431 32.393364 2.690819
2003-09-18 07:04:06 51°20.62 3°0.07 18.796418 4.358751 32.412085 2.724529
2003-09-18 07:04:12 51°20.63 3°0.1 18.663323 4.35738 32.399565 2.724529
2003-09-18 07:04:16 51°20.63 3°0.12 18.796789 4.357275 32.399251 2.690819
2003-09-18 07:04:22 51°20.64 3°0.16 18.729573 4.35854 32.409206 2.724529
2003-09-18 07:04:26 51°20.65 3°0.18 18.729573 4.35854 32.409206 2.724529
2003-09-18 07:04:32 51°20.66 3°0.22 18.696889 4.349469 32.33384 2.724529
2003-09-18 07:04:36 51°20.66 3°0.24 18.762983 4.353899 32.370644 2.690819
2003-09-18 07:04:42 51°20.67 3°0.28 18.627719 4.357591 32.400755 2.724529
2003-09-18 07:04:46 51°20.68 3°0.3 18.731427 4.352739 32.359881 2.690819
2003-09-18 07:04:52 51°20.69 3°0.34 18.663488 4.354954 32.378283 2.690819
2003-09-18 07:04:56 51°20.69 3°0.36 18.663488 4.354954 32.378283 2.690819
2003-09-18 07:05:02 51°20.7 3°0.4 18.8993 4.347676 32.317263 2.65711
2003-09-18 07:05:06 51°20.71 3°0.42 18.733034 4.350102 32.337975 2.724529
2003-09-18 07:05:12 51°20.72 3°0.46 18.765619 4.353055 32.362509 2.690819
2003-09-18 07:05:16 51°20.72 3°0.48 18.797571 4.348203 32.322204 2.690819
2003-09-18 07:05:22 51°20.73 3°0.51 18.629246 4.351895 32.35287 2.690819
2003-09-18 07:05:26 51°20.74 3°0.54 18.629246 4.351895 32.35287 2.690819
2003-09-18 07:05:32 51°20.75 3°0.57 18.82992 4.348942 32.327215 2.6234
2003-09-18 07:05:36 51°20.75 3°0.6 18.729161 4.355903 32.385046 2.65711
2003-09-18 07:05:42 51°20.76 3°0.63 18.730315 4.355692 32.382731 2.589691
2003-09-18 07:05:46 51°20.77 3°0.65 18.761418 4.358857 32.40846 2.6234
2003-09-18 07:05:52 51°20.78 3°0.69 18.726359 4.354849 32.376845 2.589691
2003-09-18 07:05:56 51°20.78 3°0.71 18.726359 4.354849 32.376845 2.589691
2003-09-18 07:06:02 51°20.79 3°0.75 18.623593 4.360228 32.42098 2.589691
2003-09-18 07:06:06 51°20.8 3°0.77 18.726235 4.352423 32.35669 2.555982
2003-09-18 07:06:12 51°20.81 3°0.81 18.792507 4.35527 32.38035 2.555982
2003-09-18 07:06:16 51°20.81 3°0.83 18.760347 4.355376 32.381789 2.555982
2003-09-18 07:06:22 51°20.82 3°0.86 18.727348 4.34736 32.316317 2.555982
2003-09-18 07:06:26 51°20.83 3°0.89 18.727348 4.34736 32.316317 2.555982
2003-09-18 07:06:32 51°20.84 3°0.92 18.692519 4.358857 32.412961 2.555982
2003-09-18 07:06:36 51°20.84 3°0.95 18.926096 4.355481 32.385476 2.589691
2003-09-18 07:06:42 51°20.85 3°0.98 18.688849 4.351368 32.350735 2.589691
2003-09-18 07:06:46 51°20.86 3°1.01 18.58706 4.352317 32.358622 2.6234
2003-09-18 07:06:52 51°20.87 3°1.04 18.649463 4.341664 32.270132 2.589691
2003-09-18 07:06:56 51°20.87 3°1.07 18.649463 4.341664 32.270132 2.589691
2003-09-18 07:07:02 51°20.88 3°1.1 18.78032 4.358118 32.406263 2.555982
2003-09-18 07:07:06 51°20.89 3°1.13 18.641872 4.345777 32.304297 2.6234
2003-09-18 07:07:12 51°20.9 3°1.16 18.702207 4.355903 32.389544 2.589691
2003-09-18 07:07:16 51°20.9 3°1.18 18.733817 4.355798 32.390354 2.555982
2003-09-18 07:07:22 51°20.91 3°1.22 18.663571 4.346727 32.315548 2.589691
2003-09-18 07:07:26 51°20.92 3°1.24 18.663571 4.346727 32.315548 2.589691
2003-09-18 07:07:32 51°20.93 3°1.28 18.596804 4.358751 32.417712 2.522272
2003-09-18 07:07:36 51°20.93 3°1.3 18.727265 4.359384 32.425788 2.522272
2003-09-18 07:07:42 51°20.94 3°1.34 18.698373 4.358224 32.419521 2.522272
2003-09-18 07:07:46 51°20.95 3°1.36 18.559101 4.358646 32.425844 2.555982
2003-09-18 07:07:52 51°20.95 3°1.4 18.660395 4.357169 32.41582 2.522272
2003-09-18 07:07:56 51°20.96 3°1.42 18.660395 4.357169 32.41582 2.522272
2003-09-18 07:08:02 51°20.97 3°1.46 18.659487 4.356642 32.41425 2.522272
2003-09-18 07:08:06 51°20.97 3°1.48 18.761789 4.338078 32.261633 2.488563
2003-09-18 07:08:12 51°20.98 3°1.52 18.696724 4.357381 32.422079 2.488563
2003-09-18 07:08:16 51°20.99 3°1.54 18.626976 4.355587 32.408295 2.488563
2003-09-18 07:08:22 51°21 3°1.58 18.693261 4.35295 32.386933 2.522272
2003-09-18 07:08:26 51°21 3°1.6 18.693261 4.35295 32.386933 2.522272
2003-09-18 07:08:32 51°21.01 3°1.64 18.660518 4.350102 32.364943 2.522272
2003-09-18 07:08:36 51°21.01 3°1.66 18.626811 4.352845 32.387181 2.488563
2003-09-18 07:08:42 51°21.02 3°1.7 18.626976 4.356009 32.411804 2.522272
2003-09-18 07:08:46 51°21.03 3°1.72 18.727883 4.350313 32.365572 2.522272
2003-09-18 07:08:52 51°21.04 3°1.76 18.763354 4.35622 32.413558 2.522272
2003-09-18 07:08:56 51°21.04 3°1.78 18.763354 4.35622 32.413558 2.522272
2003-09-18 07:09:02 51°21.05 3°1.81 18.697507 4.356959 32.421387 2.522272
2003-09-18 07:09:06 51°21.06 3°1.84 18.728584 4.354005 32.396266 2.522272
2003-09-18 07:09:12 51°21.07 3°1.87 18.759812 4.354111 32.397706 2.555982
2003-09-18 07:09:16 51°21.07 3°1.9 18.69491 4.35179 32.378974 2.522272
2003-09-18 07:09:22 51°21.08 3°1.93 18.726153 4.354427 32.399774 2.522272
2003-09-18 07:09:26 51°21.09 3°1.96 18.726153 4.354427 32.399774 2.522272
2003-09-18 07:09:32 51°21.1 3°1.99 18.724752 4.354533 32.400088 2.522272
2003-09-18 07:09:36 51°21.1 3°2.02 18.623881 4.354005 32.401332 2.522272
2003-09-18 07:09:42 51°21.11 3°2.05 18.65792 4.352318 32.382234 2.522272
2003-09-18 07:09:46 51°21.11 3°2.08 18.55592 4.354427 32.400337 2.522272
2003-09-18 07:09:52 51°21.12 3°2.11 18.556664 4.35295 32.389184 2.555982
2003-09-18 07:09:56 51°21.13 3°2.14 18.556664 4.35295 32.389184 2.555982
2003-09-18 07:10:02 51°21.14 3°2.17 18.693055 4.354005 32.398517 2.522272
2003-09-18 07:10:06 51°21.14 3°2.2 18.694415 4.350946 32.372521 2.589691
2003-09-18 07:10:12 51°21.15 3°2.23 18.758082 4.344301 32.31784 2.522272
2003-09-18 07:10:16 51°21.16 3°2.26 18.725988 4.337972 32.265802 2.522272
2003-09-18 07:10:22 51°21.17 3°2.29 18.555342 4.353372 32.393818 2.522272
2003-09-18 07:10:26 51°21.17 3°2.32 18.555342 4.353372 32.393818 2.522272
2003-09-18 07:10:32 51°21.18 3°2.35 18.552533 4.351896 32.382102 2.555982
2003-09-18 07:10:36 51°21.19 3°2.37 18.789337 4.348204 32.350845 2.555982
2003-09-18 07:10:42 51°21.19 3°2.41 18.617196 4.339027 32.274567 2.555982
2003-09-18 07:10:46 51°21.2 3°2.43 18.650165 4.352529 32.386801 2.555982
2003-09-18 07:10:52 51°21.21 3°2.47 18.680768 4.341137 32.2921 2.555982
2003-09-18 07:10:56 51°21.21 3°2.49 18.680768 4.341137 32.2921 2.555982
2003-09-18 07:11:02 51°21.22 3°2.53 18.711316 4.348837 32.356669 2.522272
2003-09-18 07:11:06 51°21.23 3°2.55 18.775873 4.352423 32.387612 2.555982
2003-09-18 07:11:12 51°21.24 3°2.59 18.607042 4.354955 32.410354 2.522272
2003-09-18 07:11:16 51°21.24 3°2.61 18.636839 4.35295 32.393687 2.555982
2003-09-18 07:11:22 51°21.25 3°2.65 18.741068 4.353267 32.396881 2.522272
2003-09-18 07:11:26 51°21.26 3°2.67 18.741068 4.353267 32.396881 2.522272
2003-09-18 07:11:32 51°21.27 3°2.71 18.703855 4.353689 32.402643 2.522272
2003-09-18 07:11:36 51°21.27 3°2.73 18.57017 4.350946 32.383212 2.555982
2003-09-18 07:11:42 51°21.28 3°2.76 18.636385 4.352529 32.398061 2.522272
2003-09-18 07:11:46 51°21.29 3°2.79 18.802634 4.34831 32.363532 2.488563
2003-09-18 07:11:52 51°21.29 3°2.82 18.635312 4.353795 32.41028 2.522272
2003-09-18 07:11:56 51°21.3 3°2.85 18.635312 4.353795 32.41028 2.522272
2003-09-18 07:12:02 51°21.31 3°2.88 18.667695 4.352107 32.396804 2.555982
2003-09-18 07:12:06 51°21.31 3°2.91 18.700929 4.352845 32.404636 2.589691
2003-09-18 07:12:12 51°21.32 3°2.94 18.633661 4.35179 32.395862 2.555982
2003-09-18 07:12:16 51°21.33 3°2.97 18.668891 4.352845 32.4052 2.522272
2003-09-18 07:12:22 51°21.34 3°3 18.737525 4.35179 32.396425 2.555982
2003-09-18 07:12:26 51°21.34 3°3.02 18.737525 4.35179 32.396425 2.555982
2003-09-18 07:12:32 51°21.35 3°3.06 18.703402 4.352212 32.401061 2.522272
2003-09-18 07:12:36 51°21.36 3°3.08 18.602047 4.350103 32.384075 2.555982
2003-09-18 07:12:42 51°21.37 3°3.12 18.534188 4.349575 32.379688 2.555982
2003-09-18 07:12:46 51°21.37 3°3.14 18.670169 4.349892 32.38232 2.555982
2003-09-18 07:12:52 51°21.38 3°3.18 18.603863 4.350208 32.383826 2.522272
2003-09-18 07:12:56 51°21.39 3°3.2 18.603863 4.350208 32.383826 2.522272
2003-09-18 07:13:02 51°21.39 3°3.24 18.637127 4.35179 32.396988 2.555982
2003-09-18 07:13:06 51°21.4 3°3.26 18.670128 4.348837 32.371857 2.522272
2003-09-18 07:13:12 51°21.41 3°3.3 18.806051 4.348521 32.368662 2.522272
2003-09-18 07:13:16 51°21.41 3°3.32 18.739956 4.35274 32.404886 2.522272
2003-09-18 07:13:22 51°21.42 3°3.36 18.669798 4.350841 32.387965 2.522272
2003-09-18 07:13:26 51°21.43 3°3.38 18.669798 4.350841 32.387965 2.522272
2003-09-18 07:13:32 51°21.43 3°3.41 18.600932 4.346095 32.349047 2.522272
2003-09-18 07:13:36 51°21.44 3°3.44 18.634198 4.352423 32.401126 2.522272
2003-09-18 07:13:42 51°21.45 3°3.47 18.639851 4.345673 32.344975 2.522272
2003-09-18 07:13:46 51°21.45 3°3.5 18.604152 4.344196 32.332694 2.522272
2003-09-18 07:13:52 51°21.46 3°3.53 18.569385 4.352634 32.402881 2.488563
2003-09-18 07:13:56 51°21.47 3°3.56 18.569385 4.352634 32.402881 2.488563
2003-09-18 07:14:02 51°21.47 3°3.59 18.671613 4.349681 32.380565 2.522272
2003-09-18 07:14:06 51°21.48 3°3.62 18.669221 4.348626 32.371228 2.488563
2003-09-18 07:14:12 51°21.49 3°3.65 18.566825 4.354955 32.423878 2.488563
2003-09-18 07:14:16 51°21.49 3°3.68 18.703361 4.353795 32.412534 2.488563
2003-09-18 07:14:22 51°21.5 3°3.71 18.564181 4.352212 32.400498 2.488563
2003-09-18 07:14:26 51°21.51 3°3.74 18.564181 4.352212 32.400498 2.488563
2003-09-18 07:14:32 51°21.52 3°3.77 18.600767 4.354006 32.414852 2.488563
2003-09-18 07:14:36 51°21.52 3°3.79 18.698826 4.354216 32.417171 2.488563
2003-09-18 07:14:42 51°21.53 3°3.83 18.632093 4.349892 32.38232 2.454853
2003-09-18 07:14:46 51°21.54 3°3.85 18.700063 4.353162 32.409523 2.488563
2003-09-18 07:14:52 51°21.54 3°3.89 18.698991 4.346727 32.355998 2.488563
2003-09-18 07:14:56 51°21.55 3°3.91 18.698991 4.346727 32.355998 2.488563
2003-09-18 07:15:02 51°21.56 3°3.95 18.664767 4.346517 32.354806 2.454853
2003-09-18 07:15:06 51°21.56 3°3.97 18.699816 4.353056 32.410336 2.454853
2003-09-18 07:15:12 51°21.57 3°4.01 18.564636 4.352318 32.403066 2.454853
2003-09-18 07:15:16 51°21.58 3°4.03 18.597134 4.349575 32.381377 2.421144
2003-09-18 07:15:22 51°21.59 3°4.07 18.599859 4.352107 32.403001 2.387435
2003-09-18 07:15:26 51°21.59 3°4.09 18.599859 4.352107 32.403001 2.387435
2003-09-18 07:15:32 51°21.6 3°4.12 18.804857 4.3462 32.354424 2.421144
2003-09-18 07:15:36 51°21.61 3°4.15 18.637953 4.352212 32.403878 2.353725
2003-09-18 07:15:42 51°21.61 3°4.18 18.707071 4.347993 32.370466 2.387435
2003-09-18 07:15:46 51°21.62 3°4.21 18.640965 4.353373 32.413532 2.353725
2003-09-18 07:15:52 51°21.63 3°4.24 18.573102 4.35601 32.436038 2.353725
2003-09-18 07:15:56 51°21.63 3°4.27 18.573102 4.35601 32.436038 2.353725
2003-09-18 07:16:02 51°21.64 3°4.3 18.607743 4.354322 32.420867 2.387435
2003-09-18 07:16:06 51°21.65 3°4.32 18.677263 4.348204 32.368844 2.421144
2003-09-18 07:16:12 51°21.66 3°4.36 18.612738 4.354849 32.421873 2.421144
2003-09-18 07:16:16 51°21.66 3°4.38 18.779044 4.353267 32.408146 2.421144
2003-09-18 07:16:22 51°21.67 3°4.42 18.612738 4.354111 32.414603 2.421144
2003-09-18 07:16:26 51°21.68 3°4.44 18.612738 4.354111 32.414603 2.421144
2003-09-18 07:16:32 51°21.68 3°4.48 18.782132 4.35601 32.429271 2.421144
2003-09-18 07:16:36 51°21.69 3°4.5 18.782873 4.3539 32.411157 2.421144
2003-09-18 07:16:42 51°21.7 3°4.53 18.5826 4.354849 32.418491 2.387435
2003-09-18 07:16:46 51°21.7 3°4.56 18.650453 4.355693 32.424947 2.454853
2003-09-18 07:16:52 51°21.71 3°4.59 18.654537 4.354216 32.411536 2.421144
2003-09-18 07:16:56 51°21.72 3°4.62 18.654537 4.354216 32.411536 2.421144
2003-09-18 07:17:02 51°21.72 3°4.65 18.586771 4.354427 32.412164 2.454853
2003-09-18 07:17:06 51°21.73 3°4.68 18.722238 4.355693 32.423256 2.421144
2003-09-18 07:17:12 51°21.74 3°4.71 18.620332 4.354638 32.412792 2.454853
2003-09-18 07:17:16 51°21.74 3°4.73 18.587143 4.354427 32.410474 2.421144
2003-09-18 07:17:22 51°21.75 3°4.77 18.756887 4.357697 32.435982 2.421144
2003-09-18 07:17:26 51°21.76 3°4.79 18.756887 4.357697 32.435982 2.421144
2003-09-18 07:17:32 51°21.77 3°4.83 18.655197 4.350524 32.375201 2.421144
2003-09-18 07:17:36 51°21.77 3°4.85 18.72335 4.349997 32.36969 2.454853
2003-09-18 07:17:42 51°21.78 3°4.89 18.655197 4.352318 32.387861 2.421144
2003-09-18 07:17:46 51°21.78 3°4.91 18.691612 4.354216 32.404213 2.454853
2003-09-18 07:17:52 51°21.79 3°4.95 18.55687 4.355166 32.410982 2.454853
2003-09-18 07:17:56 51°21.8 3°4.97 18.55687 4.355166 32.410982 2.454853
2003-09-18 07:18:02 51°21.81 3°5 18.657755 4.347044 32.343447 2.454853
2003-09-18 07:18:06 51°21.81 3°5.03 18.65858 4.354111 32.402773 2.421144
2003-09-18 07:18:12 51°21.82 3°5.06 18.658085 4.354533 32.405718 2.421144
2003-09-18 07:18:16 51°21.82 3°5.09 18.859046 4.349364 32.36274 2.421144
2003-09-18 07:18:22 51°21.83 3°5.12 18.726235 4.357908 32.432663 2.421144
2003-09-18 07:18:26 51°21.84 3°5.14 18.726235 4.357908 32.432663 2.421144
2003-09-18 07:18:32 51°21.85 3°5.18 18.660683 4.353689 32.397575 2.421144
2003-09-18 07:18:36 51°21.85 3°5.2 18.594822 4.356959 32.424768 2.454853
2003-09-18 07:18:42 51°21.86 3°5.24 18.761912 4.35833 32.435045 2.421144
2003-09-18 07:18:46 51°21.87 3°5.26 18.661096 4.35274 32.390244 2.421144
2003-09-18 07:18:52 51°21.87 3°5.3 18.663117 4.357803 32.431222 2.454853
2003-09-18 07:18:56 51°21.88 3°5.32 18.663117 4.357803 32.431222 2.454853
2003-09-18 07:19:02 51°21.89 3°5.35 18.628999 4.357486 32.428027 2.421144
2003-09-18 07:19:06 51°21.89 3°5.38 18.662209 4.360018 32.447954 2.387435
2003-09-18 07:19:12 51°21.9 3°5.41 18.696641 4.358013 32.430723 2.387435
2003-09-18 07:19:16 51°21.91 3°5.44 18.697507 4.359068 32.439495 2.421144
2003-09-18 07:19:22 51°21.91 3°5.47 18.595276 4.349364 32.358242 2.387435
2003-09-18 07:19:26 51°21.92 3°5.49 18.595276 4.349364 32.358242 2.387435
2003-09-18 07:19:32 51°21.93 3°5.53 18.697796 4.350841 32.369956 2.387435
2003-09-18 07:19:36 51°21.93 3°5.55 18.86505 4.354638 32.401528 2.353725
2003-09-18 07:19:42 51°21.94 3°5.59 18.562529 4.34852 32.350665 2.353725
2003-09-18 07:19:46 51°21.95 3°5.61 18.659776 4.359279 32.439558 2.353725
2003-09-18 07:19:52 51°21.96 3°5.65 18.697177 4.357064 32.420575 2.320016
2003-09-18 07:19:56 51°21.96 3°5.67 18.697177 4.357064 32.420575 2.320016
2003-09-18 07:20:02 51°21.97 3°5.7 18.797406 4.35622 32.375874 2.320016
2003-09-18 07:20:06 51°21.97 3°5.73 18.594451 4.358435 32.431977 2.320016
2003-09-18 07:20:12 51°21.98 3°5.76 18.765578 4.360123 32.44714 2.320016
2003-09-18 07:20:16 51°21.99 3°5.78 18.697507 4.356959 32.420824 2.353725
2003-09-18 07:20:22 51°21.99 3°5.82 18.734435 4.360123 32.446576 2.320016
2003-09-18 07:20:26 51°22 3°5.84 18.734435 4.360123 32.446576 2.320016
2003-09-18 07:20:32 51°22.01 3°5.88 18.56509 4.357592 32.425523 2.320016
2003-09-18 07:20:36 51°22.01 3°5.9 18.701794 4.359279 32.440686 2.353725
2003-09-18 07:20:42 51°22.02 3°5.94 18.66621 4.358013 32.429596 2.286306
2003-09-18 07:20:46 51°22.03 3°5.96 18.700681 4.358963 32.435799 2.286306
2003-09-18 07:20:52 51°22.03 3°5.99 18.669303 4.359807 32.442817 2.252597
2003-09-18 07:20:56 51°22.04 3°6.02 18.669303 4.359807 32.442817 2.252597
2003-09-18 07:21:02 51°22.05 3°6.05 18.671077 4.361705 32.456915 2.218888
2003-09-18 07:21:06 51°22.05 3°6.07 18.705546 4.362022 32.459547 2.252597
2003-09-18 07:21:12 51°22.06 3°6.11 18.707771 4.359701 32.440812 2.286306
2003-09-18 07:21:16 51°22.07 3°6.13 18.745312 4.358119 32.426529 2.286306
2003-09-18 07:21:22 51°22.07 3°6.17 18.677469 4.354427 32.396397 2.252597
2003-09-18 07:21:26 51°22.08 3°6.19 18.677469 4.354427 32.396397 2.252597
2003-09-18 07:21:32 51°22.08 3°6.23 18.679036 4.363076 32.466627 2.218888
2003-09-18 07:21:36 51°22.09 3°6.25 18.578182 4.360861 32.447079 2.218888
2003-09-18 07:21:42 51°22.1 3°6.29 18.679366 4.362127 32.455913 2.218888
2003-09-18 07:21:46 51°22.1 3°6.31 18.681469 4.365186 32.479094 2.252597
2003-09-18 07:21:52 51°22.11 3°6.34 18.749884 4.360017 32.436118 2.252597
2003-09-18 07:21:56 51°22.11 3°6.37 18.749884 4.360017 32.436118 2.252597
2003-09-18 07:22:02 51°22.12 3°6.4 18.752233 4.364975 32.475647 2.252597
2003-09-18 07:22:06 51°22.13 3°6.42 18.582848 4.363182 32.460173 2.218888
2003-09-18 07:22:12 51°22.13 3°6.46 18.820497 4.361178 32.444074 2.185178
2003-09-18 07:22:16 51°22.14 3°6.48 18.75388 4.365397 32.478027 2.185178
2003-09-18 07:22:22 51°22.14 3°6.52 18.754786 4.363076 32.456478 2.151469
2003-09-18 07:22:26 51°22.15 3°6.54 18.754786 4.363076 32.456478 2.151469
2003-09-18 07:22:32 51°22.16 3°6.58 18.655197 4.361705 32.444515 2.218888
2003-09-18 07:22:36 51°22.16 3°6.6 18.657219 4.366874 32.486357 2.185178
2003-09-18 07:22:42 51°22.17 3°6.64 18.759441 4.363182 32.454537 2.151469
2003-09-18 07:22:46 51°22.17 3°6.66 18.829262 4.364658 32.467941 2.185178
2003-09-18 07:22:52 51°22.18 3°6.69 18.626976 4.363498 32.456604 2.185178
2003-09-18 07:22:56 51°22.18 3°6.72 18.626976 4.363498 32.456604 2.185178
2003-09-18 07:23:02 51°22.19 3°6.75 18.730891 4.363709 32.457231 2.185178
2003-09-18 07:23:06 51°22.2 3°6.78 18.696641 4.360861 32.432431 2.218888
2003-09-18 07:23:12 51°22.2 3°6.81 18.764136 4.365502 32.469318 2.185178
2003-09-18 07:23:16 51°22.21 3°6.83 18.764507 4.361705 32.437756 2.218888
2003-09-18 07:23:22 51°22.21 3°6.87 18.7972 4.364553 32.459737 2.185178
2003-09-18 07:23:26 51°22.22 3°6.89 18.7972 4.364553 32.459737 2.185178
2003-09-18 07:23:32 51°22.23 3°6.93 18.730974 4.363709 32.452159 2.185178
2003-09-18 07:23:36 51°22.23 3°6.95 18.731262 4.359701 32.416597 2.151469
2003-09-18 07:23:42 51°22.24 3°6.98 18.731798 4.367928 32.484974 2.151469
2003-09-18 07:23:46 51°22.24 3°7.01 18.765866 4.365819 32.467439 2.151469
2003-09-18 07:23:52 51°22.25 3°7.04 18.665055 4.366346 32.471823 2.185178
2003-09-18 07:23:56 51°22.26 3°7.07 18.665055 4.366346 32.471823 2.185178
2003-09-18 07:24:02 51°22.26 3°7.1 18.702536 4.365291 32.461366 2.151469
2003-09-18 07:24:06 51°22.27 3°7.12 18.871178 4.366662 32.473889 2.185178
2003-09-18 07:24:12 51°22.27 3°7.16 18.771055 4.360334 32.420731 2.151469
2003-09-18 07:24:16 51°22.28 3°7.18 18.771879 4.360017 32.418664 2.218888
2003-09-18 07:24:22 51°22.29 3°7.22 18.604689 4.364236 32.453726 2.151469
2003-09-18 07:24:26 51°22.29 3°7.24 18.604689 4.364236 32.453726 2.151469
2003-09-18 07:24:32 51°22.3 3°7.28 18.842222 4.36719 32.476582 2.117759
2003-09-18 07:24:36 51°22.3 3°7.3 18.741151 4.363709 32.446527 2.185178
2003-09-18 07:24:42 51°22.31 3°7.33 18.777685 4.35738 32.39338 2.185178
2003-09-18 07:24:46 51°22.31 3°7.36 18.676108 4.367717 32.477583 2.185178
2003-09-18 07:24:52 51°22.32 3°7.39 18.743787 4.362865 32.4367 2.185178
2003-09-18 07:24:56 51°22.33 3°7.41 18.743787 4.362865 32.4367 2.185178
2003-09-18 07:25:02 51°22.33 3°7.45 18.710945 4.366979 32.469756 2.185178
2003-09-18 07:25:06 51°22.34 3°7.47 18.746506 4.364342 32.446155 2.151469
2003-09-18 07:25:12 51°22.35 3°7.51 18.74733 4.357063 32.38513 2.218888
2003-09-18 07:25:16 51°22.35 3°7.53 18.646988 4.364658 32.447095 2.185178
2003-09-18 07:25:22 51°22.36 3°7.57 18.71552 4.360966 32.4153 2.185178
2003-09-18 07:25:26 51°22.36 3°7.59 18.71552 4.360966 32.4153 2.185178
2003-09-18 07:25:32 51°22.37 3°7.62 18.749596 4.366557 32.462307 2.218888
2003-09-18 07:25:36 51°22.37 3°7.65 18.650247 4.365818 32.454483 2.185178
2003-09-18 07:25:42 51°22.38 3°7.68 18.820373 4.36508 32.448348 2.218888
2003-09-18 07:25:46 51°22.39 3°7.71 18.788514 4.366662 32.46093 2.218888
2003-09-18 07:25:52 51°22.39 3°7.74 18.858511 4.366029 32.454546 2.218888
2003-09-18 07:25:56 51°22.4 3°7.76 18.858511 4.366029 32.454546 2.218888
2003-09-18 07:26:02 51°22.4 3°7.8 18.656105 4.364658 32.443155 2.218888
2003-09-18 07:26:06 51°22.41 3°7.82 18.62417 4.366135 32.454296 2.185178
2003-09-18 07:26:12 51°22.42 3°7.86 18.829632 4.368033 32.46838 2.185178
2003-09-18 07:26:16 51°22.42 3°7.88 18.863035 4.362759 32.424008 2.252597
2003-09-18 07:26:22 51°22.43 3°7.92 18.730603 4.367084 32.459367 2.218888
2003-09-18 07:26:26 51°22.43 3°7.94 18.730603 4.367084 32.459367 2.218888
2003-09-18 07:26:32 51°22.44 3°7.97 18.797571 4.362126 32.416502 2.252597
2003-09-18 07:26:36 51°22.45 3°8 18.763766 4.363392 32.425327 2.252597
2003-09-18 07:26:42 51°22.45 3°8.03 18.729408 4.365713 32.444037 2.286306
2003-09-18 07:26:46 51°22.46 3°8.06 18.62743 4.368139 32.463062 2.286306
2003-09-18 07:26:52 51°22.47 3°8.09 18.932054 4.367084 32.452612 2.286306
2003-09-18 07:26:56 51°22.47 3°8.11 18.932054 4.367084 32.452612 2.286306
2003-09-18 07:27:02 51°22.48 3°8.15 18.795965 4.366029 32.444415 2.252597
2003-09-18 07:27:06 51°22.48 3°8.17 18.829097 4.362337 32.412632 2.353725
2003-09-18 07:27:12 51°22.49 3°8.21 18.694498 4.366978 32.448923 2.252597
2003-09-18 07:27:16 51°22.5 3°8.23 18.7615 4.362337 32.41207 2.252597
2003-09-18 07:27:22 51°22.5 3°8.27 18.628091 4.36835 32.461436 2.286306
2003-09-18 07:27:26 51°22.51 3°8.29 18.628091 4.36835 32.461436 2.286306
2003-09-18 07:27:32 51°22.51 3°8.32 18.79576 4.368033 32.459371 2.320016
2003-09-18 07:27:36 51°22.52 3°8.34 18.829838 4.366135 32.444165 2.286306
2003-09-18 07:27:42 51°22.52 3°8.38 18.695941 4.357063 32.368844 2.218888
2003-09-18 07:27:46 51°22.53 3°8.4 18.693838 4.364025 32.426084 2.286306
2003-09-18 07:27:52 51°22.53 3°8.43 18.929219 4.360228 32.395116 2.252597
2003-09-18 07:27:56 51°22.54 3°8.45 18.929219 4.360228 32.395116 2.252597
2003-09-18 07:28:02 51°22.54 3°8.48 18.72743 4.365607 32.439786 2.218888
2003-09-18 07:28:06 51°22.55 3°8.5 18.62417 4.366556 32.447107 2.286306
2003-09-18 07:28:12 51°22.55 3°8.52 18.588877 4.364236 32.427273 2.252597
2003-09-18 07:28:16 51°22.56 3°8.54 18.587432 4.364974 32.435092 2.286306
2003-09-18 07:28:22 51°22.56 3°8.57 18.622891 4.367506 32.455554 2.252597
2003-09-18 07:28:26 51°22.56 3°8.59 18.622891 4.367506 32.455554 2.252597
2003-09-18 07:28:32 51°22.57 3°8.62 18.6245 4.364341 32.430961 2.252597
2003-09-18 07:28:36 51°22.57 3°8.64 18.591478 4.360333 32.396553 2.454853
2003-09-18 07:28:42 51°22.58 3°8.66 18.591354 4.363076 32.417639 2.454853
2003-09-18 07:28:46 51°22.58 3°8.68 18.591478 4.36181 32.407129 2.353725
2003-09-18 07:28:52 51°22.59 3°8.71 18.587266 4.367611 32.454178 2.387435
2003-09-18 07:28:56 51°22.59 3°8.73 18.587266 4.367611 32.454178 2.387435
2003-09-18 07:29:02 51°22.6 3°8.76 18.587597 4.36624 32.442228 2.353725
2003-09-18 07:29:06 51°22.6 3°8.77 18.620332 4.368033 32.456557 2.353725
2003-09-18 07:29:12 51°22.61 3°8.8 18.58611 4.36297 32.415639 2.320016
2003-09-18 07:29:16 51°22.61 3°8.82 18.585863 4.361915 32.406881 2.353725
2003-09-18 07:29:22 51°22.62 3°8.85 18.584872 4.366451 32.445105 2.320016
2003-09-18 07:29:26 51°22.62 3°8.86 18.584872 4.366451 32.445105 2.320016
2003-09-18 07:29:32 51°22.62 3°8.89 18.585615 4.363919 32.425208 2.286306
2003-09-18 07:29:36 51°22.63 3°8.9 18.584252 4.354426 32.348075 2.320016
2003-09-18 07:29:42 51°22.63 3°8.93 18.584789 4.36413 32.429772 2.320016
2003-09-18 07:29:46 51°22.63 3°8.94 18.585615 4.358962 32.386853 2.252597
2003-09-18 07:29:52 51°22.64 3°8.96 18.583591 4.366451 32.45017 2.353725
2003-09-18 07:29:56 51°22.64 3°8.97 18.583591 4.366451 32.45017 2.353725
2003-09-18 07:30:02 51°22.64 3°8.99 18.582559 4.364552 32.433276 2.286306
2003-09-18 07:30:06 51°22.64 3°9 18.582683 4.36065 32.401428 2.320016
2003-09-18 07:30:12 51°22.65 3°9.01 18.581857 4.365396 32.440846 2.286306
2003-09-18 07:30:16 51°22.65 3°9.02 18.581486 4.364447 32.433525 2.252597
2003-09-18 07:30:22 51°22.65 3°9.04 18.582477 4.36413 32.430897 2.252597
2003-09-18 07:30:26 51°22.65 3°9.05 18.582477 4.36413 32.430897 2.252597
2003-09-18 07:30:32 51°22.66 3°9.06 18.581196 4.364658 32.436402 2.252597
2003-09-18 07:30:36 51°22.66 3°9.07 18.579297 4.365185 32.44022 2.218888
2003-09-18 07:30:42 51°22.66 3°9.08 18.579669 4.355481 32.361321 2.252597
2003-09-18 07:30:46 51°22.67 3°9.09 18.57909 4.367506 32.46062 2.218888
2003-09-18 07:30:52 51°22.67 3°9.1 18.578719 4.364763 32.438403 2.218888
2003-09-18 07:30:56 51°22.67 3°9.11 18.578719 4.364763 32.438403 2.218888
2003-09-18 07:31:02 51°22.68 3°9.12 18.579008 4.369405 32.476955 2.151469
2003-09-18 07:31:06 51°22.68 3°9.13 18.578306 4.362126 32.41594 2.117759
2003-09-18 07:31:12 51°22.68 3°9.14 18.578636 4.366768 32.453924 2.117759
2003-09-18 07:31:16 51°22.69 3°9.14 18.578678 4.369194 32.475766 2.151469
2003-09-18 07:31:22 51°22.69 3°9.15 18.578925 4.364869 32.439279 2.08405
2003-09-18 07:31:26 51°22.69 3°9.16 18.578925 4.364869 32.439279 2.08405
2003-09-18 07:31:32 51°22.7 3°9.17 18.612903 4.3674 32.46087 2.08405
2003-09-18 07:31:36 51°22.7 3°9.18 18.578843 4.368139 32.46813 2.08405
2003-09-18 07:31:42 51°22.7 3°9.18 18.578925 4.368244 32.469006 2.151469
2003-09-18 07:31:46 51°22.71 3°9.19 18.579173 4.359173 32.394223 2.08405
2003-09-18 07:31:52 51°22.71 3°9.2 18.612284 4.367611 32.463185 2.08405
2003-09-18 07:31:56 51°22.71 3°9.21 18.612284 4.367611 32.463185 2.08405
2003-09-18 07:32:02 51°22.71 3°9.21 18.579297 4.366768 32.457302 2.117759
2003-09-18 07:32:06 51°22.71 3°9.22 18.578636 4.371409 32.495296 2.151469
2003-09-18 07:32:12 51°22.72 3°9.23 18.577893 4.36624 32.452921 2.185178
2003-09-18 07:32:16 51°22.72 3°9.24 18.578099 4.366557 32.456112 2.185178
2003-09-18 07:32:22 51°22.72 3°9.24 18.577893 4.368772 32.473387 2.185178
2003-09-18 07:32:26 51°22.72 3°9.25 18.577893 4.368772 32.473387 2.185178
2003-09-18 07:32:32 51°22.72 3°9.26 18.577356 4.365396 32.446474 2.185178
2003-09-18 07:32:36 51°22.72 3°9.26 18.578554 4.36508 32.44272 2.185178
2003-09-18 07:32:42 51°22.72 3°9.27 18.578719 4.365713 32.447977 2.151469
2003-09-18 07:32:46 51°22.72 3°9.27 18.579008 4.357907 32.383711 2.151469
2003-09-18 07:32:52 51°22.72 3°9.28 18.579173 4.366979 32.459054 2.185178
2003-09-18 07:32:56 51°22.72 3°9.29 18.579173 4.366979 32.459054 2.185178
2003-09-18 07:33:02 51°22.72 3°9.3 18.578471 4.364552 32.439464 2.185178
2003-09-18 07:33:06 51°22.72 3°9.3 18.577893 4.364447 32.438026 2.185178
2003-09-18 07:33:12 51°22.72 3°9.31 18.577108 4.369194 32.476893 2.151469
2003-09-18 07:33:16 51°22.72 3°9.32 18.57781 4.365396 32.445911 2.151469
2003-09-18 07:33:22 51°22.73 3°9.33 18.577356 4.369827 32.482151 2.117759
2003-09-18 07:33:26 51°22.73 3°9.33 18.577356 4.369827 32.482151 2.117759
2003-09-18 07:33:32 51°22.73 3°9.34 18.578017 4.358329 32.386091 2.151469
2003-09-18 07:33:36 51°22.73 3°9.35 18.577191 4.371092 32.492103 2.185178
2003-09-18 07:33:42 51°22.73 3°9.36 18.577191 4.371303 32.494419 2.151469
2003-09-18 07:33:46 51°22.73 3°9.37 18.57715 4.372991 32.508442 2.151469
2003-09-18 07:33:52 51°22.73 3°9.38 18.576902 4.371198 32.494107 2.117759
2003-09-18 07:33:56 51°22.73 3°9.39 18.576902 4.371198 32.494107 2.117759
2003-09-18 07:34:02 51°22.73 3°9.4 18.57525 4.37278 32.508381 2.151469
2003-09-18 07:34:06 51°22.73 3°9.41 18.574878 4.371725 32.498489 2.117759
2003-09-18 07:34:12 51°22.73 3°9.43 18.574672 4.362337 32.421066 2.08405
2003-09-18 07:34:16 51°22.73 3°9.43 18.57335 4.369827 32.483841 2.185178
2003-09-18 07:34:22 51°22.73 3°9.44 18.572689 4.368877 32.47539 2.151469
2003-09-18 07:34:26 51°22.72 3°9.45 18.572689 4.368877 32.47539 2.151469
2003-09-18 07:34:32 51°22.72 3°9.46 18.571987 4.371831 32.499365 2.185178
2003-09-18 07:34:36 51°22.72 3°9.46 18.571037 4.370354 32.487659 2.185178
2003-09-18 07:34:41 51°22.72 3°9.47 18.569881 4.366662 32.456989 2.185178
2003-09-18 07:34:46 51°22.72 3°9.47 18.568807 4.372991 32.509006 2.185178
2003-09-18 07:34:52 51°22.71 3°9.48 18.567816 4.372464 32.506315 2.218888
2003-09-18 07:34:56 51°22.71 3°9.48 18.567816 4.372464 32.506315 2.218888
2003-09-18 07:35:02 51°22.71 3°9.48 18.567403 4.372991 32.511262 2.218888
2003-09-18 07:35:06 51°22.72 3°9.48 18.567486 4.372253 32.50569 2.185178
2003-09-18 07:35:11 51°22.72 3°9.48 18.568683 4.369827 32.485532 2.185178
2003-09-18 07:35:15 51°22.72 3°9.48 18.603079 4.366557 32.460617 2.151469
2003-09-18 07:35:21 51°22.72 3°9.48 18.567857 4.37278 32.512329 2.185178
2003-09-18 07:35:25 51°22.72 3°9.48 18.567857 4.37278 32.512329 2.185178
2003-09-18 07:35:31 51°22.72 3°9.49 18.567609 4.372147 32.508198 2.151469
2003-09-18 07:35:35 51°22.72 3°9.49 18.566907 4.367295 32.468442 2.151469
2003-09-18 07:35:41 51°22.72 3°9.49 18.566329 4.37278 32.51515 2.185178
2003-09-18 07:35:45 51°22.72 3°9.49 18.565999 4.369299 32.486786 2.151469
2003-09-18 07:35:51 51°22.72 3°9.49 18.564512 4.36835 32.47777 2.151469
2003-09-18 07:35:55 51°22.72 3°9.49 18.564512 4.36835 32.47777 2.151469
2003-09-18 07:36:01 51°22.72 3°9.49 18.562983 4.370882 32.499371 2.117759
2003-09-18 07:36:05 51°22.72 3°9.49 18.561496 4.370038 32.492358 2.08405
2003-09-18 07:36:12 51°22.72 3°9.5 18.595194 4.371303 32.502877 2.151469
2003-09-18 07:36:15 51°22.72 3°9.5 18.561207 4.370249 32.494675 2.08405
2003-09-18 07:36:21 51°22.72 3°9.5 18.560299 4.37162 32.506071 2.08405
2003-09-18 07:36:25 51°22.72 3°9.5 18.560299 4.37162 32.506071 2.08405
2003-09-18 07:36:31 51°22.72 3°9.5 18.560794 4.367928 32.474827 2.050341
2003-09-18 07:36:35 51°22.72 3°9.5 18.561414 4.369299 32.487913 2.08405
2003-09-18 07:36:41 51°22.72 3°9.5 18.561992 4.370882 32.502755 2.016631
2003-09-18 07:36:45 51°22.72 3°9.5 18.562323 4.365291 32.456859 2.050341
2003-09-18 07:36:51 51°22.72 3°9.51 18.562075 4.374152 32.530498 2.050341
2003-09-18 07:36:55 51°22.72 3°9.51 18.562075 4.374152 32.530498 2.050341
2003-09-18 07:37:01 51°22.72 3°9.51 18.562818 4.372569 32.517911 2.050341
2003-09-18 07:37:05 51°22.72 3°9.51 18.561703 4.372464 32.517034 2.050341
2003-09-18 07:37:11 51°22.72 3°9.51 18.56162 4.371514 32.509143 2.050341
2003-09-18 07:37:15 51°22.72 3°9.51 18.561786 4.37046 32.500376 2.050341
2003-09-18 07:37:21 51°22.72 3°9.52 18.560959 4.372464 32.515905 2.016631
2003-09-18 07:37:25 51°22.72 3°9.52 18.560959 4.372464 32.515905 2.016631
2003-09-18 07:37:31 51°22.72 3°9.52 18.560959 4.370354 32.498371 2.016631
2003-09-18 07:37:35 51°22.72 3°9.52 18.561125 4.37046 32.499812 2.050341
2003-09-18 07:37:41 51°22.72 3°9.52 18.560299 4.368877 32.486662 2.050341
2003-09-18 07:37:45 51°22.72 3°9.52 18.559968 4.364553 32.45016 2.050341
2003-09-18 07:37:51 51°22.72 3°9.52 18.55939 4.371514 32.509143 2.050341
2003-09-18 07:37:55 51°22.72 3°9.52 18.55939 4.371514 32.509143 2.050341
2003-09-18 07:38:01 51°22.72 3°9.53 18.55877 4.369932 32.495428 2.050341
2003-09-18 07:38:05 51°22.72 3°9.53 18.558646 4.367295 32.473513 2.117759
2003-09-18 07:38:11 51°22.72 3°9.53 18.558853 4.36951 32.491922 1.982922
2003-09-18 07:38:15 51°22.72 3°9.53 18.557696 4.367401 32.474953 2.08405
2003-09-18 07:38:21 51°22.72 3°9.53 18.558564 4.371093 32.5062 2.016631
2003-09-18 07:38:25 51°22.72 3°9.53 18.558564 4.371093 32.5062 2.016631
2003-09-18 07:38:31 51°22.72 3°9.53 18.557655 4.369088 32.489543 2.117759
2003-09-18 07:38:35 51°22.72 3°9.53 18.556953 4.368666 32.4866 2.016631
2003-09-18 07:38:41 51°22.72 3°9.54 18.556292 4.369194 32.491547 2.050341
2003-09-18 07:38:45 51°22.72 3°9.54 18.55687 4.367823 32.480714 2.050341
2003-09-18 07:38:51 51°22.72 3°9.54 18.556127 4.366979 32.473701 2.016631
2003-09-18 07:38:55 51°22.72 3°9.54 18.556127 4.366979 32.473701 2.016631
2003-09-18 07:39:01 51°22.72 3°9.54 18.556085 4.36719 32.475454 2.050341
2003-09-18 07:39:05 51°22.72 3°9.54 18.555466 4.367928 32.482719 1.982922
2003-09-18 07:39:11 51°22.72 3°9.54 18.555796 4.369932 32.499941 2.016631
2003-09-18 07:39:15 51°22.72 3°9.54 18.555259 4.365819 32.465185 1.982922
2003-09-18 07:39:21 51°22.72 3°9.55 18.555466 4.368772 32.49086 2.016631
2003-09-18 07:39:25 51°22.72 3°9.55 18.555466 4.368772 32.49086 2.016631
2003-09-18 07:39:31 51°22.72 3°9.55 18.554805 4.366662 32.472762 1.949212
2003-09-18 07:39:33 51°22.72 3°9.55 18.554557 4.367823 32.48297 2.050341
2003-09-18 07:39:41 51°22.72 3°9.55 18.553689 4.368983 32.492614 2.016631
2003-09-18 07:39:45 51°22.72 3°9.55 18.552904 4.368878 32.492301 2.016631
2003-09-18 07:39:51 51°22.72 3°9.55 18.551995 4.37046 32.505453 2.050341
2003-09-18 07:39:55 51°22.72 3°9.56 18.551995 4.37046 32.505453 2.050341
2003-09-18 07:40:01 51°22.72 3°9.56 18.550756 4.366557 32.472449 1.982922
2003-09-18 07:40:05 51°22.72 3°9.56 18.550302 4.368667 32.491111 1.982922
2003-09-18 07:40:11 51°22.72 3°9.56 18.550136 4.369616 32.499567 1.982922
2003-09-18 07:40:15 51°22.72 3°9.56 18.550591 4.367506 32.480903 2.050341
2003-09-18 07:40:21 51°22.72 3°9.56 18.550136 4.369299 32.496372 2.050341
2003-09-18 07:40:25 51°22.72 3°9.56 18.550136 4.369299 32.496372 2.050341
2003-09-18 07:40:31 51°22.72 3°9.57 18.549228 4.367401 32.481154 2.050341
2003-09-18 07:40:35 51°22.72 3°9.57 18.549393 4.362127 32.437883 2.08405
2003-09-18 07:40:41 51°22.72 3°9.57 18.548484 4.369721 32.501572 2.016631
2003-09-18 07:40:45 51°22.72 3°9.57 18.547782 4.368561 32.492491 2.016631
2003-09-18 07:40:51 51°22.72 3°9.57 18.547203 4.366662 32.476144 2.050341
2003-09-18 07:40:55 51°22.72 3°9.57 18.547203 4.366662 32.476144 2.050341
2003-09-18 07:41:01 51°22.72 3°9.57 18.546088 4.366768 32.477021 2.050341
2003-09-18 07:41:05 51°22.72 3°9.57 18.546088 4.368139 32.490111 1.949212
2003-09-18 07:41:11 51°22.72 3°9.58 18.545551 4.365291 32.465874 2.08405
2003-09-18 07:41:15 51°22.72 3°9.58 18.545551 4.370987 32.514917 2.016631